Time,TemperatureF,DewpointF,PressureIn,WindDirection,WindDirectionDegrees,WindSpeedMPH,WindSpeedGustMPH,Humidity,HourlyPrecipIn,Conditions,Clouds,dailyrainin,SoftwareType,DateUTC
2013-07-03 00:02:00,64.6,59.0,25.28,SE,142,5.8,12.8,82,0.00,,---,0.00,VWS V14.01,2013-07-03 06:02:00,
2013-07-03 00:03:00,64.6,59.0,25.28,East,100,7.6,8.7,82,0.00,,---,0.00,VWS V14.01,2013-07-03 06:03:00,
2013-07-03 00:05:00,64.6,59.0,25.28,East,92,8.7,8.7,82,0.00,,---,0.00,VWS V14.01,2013-07-03 06:05:00,
2013-07-03 00:08:00,64.6,59.0,25.28,ESE,110,5.4,5.4,82,0.00,,---,0.00,VWS V14.01,2013-07-03 06:08:00,
2013-07-03 00:11:00,64.6,59.3,25.28,East,83,2.7,6.3,83,0.00,,---,0.00,VWS V14.01,2013-07-03 06:11:00,
2013-07-03 00:14:00,64.4,59.1,25.28,South,181,2.2,4.0,83,0.00,,---,0.00,VWS V14.01,2013-07-03 06:14:00,
2013-07-03 00:15:00,64.4,59.1,25.28,NNE,13,2.2,2.2,83,0.00,,---,0.00,VWS V14.01,2013-07-03 06:15:00,
2013-07-03 00:17:00,64.4,59.1,25.28,East,91,5.4,5.4,83,0.00,,---,0.00,VWS V14.01,2013-07-03 06:17:00,
2013-07-03 00:20:00,64.2,59.3,25.28,East,101,3.6,4.9,84,0.00,,---,0.00,VWS V14.01,2013-07-03 06:20:00,
2013-07-03 00:22:00,64.2,59.3,25.28,SE,140,0.0,0.0,84,0.00,,---,0.00,VWS V14.01,2013-07-03 06:22:00,
2013-07-03 00:25:00,64.0,59.5,25.28,East,96,4.0,4.0,85,0.00,,---,0.00,VWS V14.01,2013-07-03 06:25:00,
2013-07-03 00:27:00,64.0,59.5,25.28,ESE,110,4.5,5.8,85,0.00,,---,0.00,VWS V14.01,2013-07-03 06:27:00,
2013-07-03 00:28:00,64.0,59.5,25.28,East,96,7.6,7.6,85,0.00,,---,0.00,VWS V14.01,2013-07-03 06:28:00,
2013-07-03 00:30:00,64.0,59.5,25.28,SE,141,0.0,6.3,85,0.00,,---,0.00,VWS V14.01,2013-07-03 06:30:00,
2013-07-03 00:31:00,63.9,59.3,25.28,WSW,254,4.0,4.0,85,0.00,,---,0.00,VWS V14.01,2013-07-03 06:31:00,
2013-07-03 00:33:00,63.9,59.3,25.28,SSE,159,0.0,2.2,85,0.00,,---,0.00,VWS V14.01,2013-07-03 06:33:00,
2013-07-03 00:36:00,63.9,59.3,25.28,SE,146,0.0,0.0,85,0.00,,---,0.00,VWS V14.01,2013-07-03 06:36:00,
2013-07-03 00:38:00,63.9,58.9,25.28,ESE,103,0.0,3.6,84,0.00,,---,0.00,VWS V14.01,2013-07-03 06:38:00,
2013-07-03 00:39:00,63.9,58.9,25.28,SE,126,0.0,0.0,84,0.00,,---,0.00,VWS V14.01,2013-07-03 06:39:00,
2013-07-03 00:41:00,63.9,58.9,25.28,ESE,113,2.7,2.7,84,0.00,,---,0.00,VWS V14.01,2013-07-03 06:41:00,
2013-07-03 00:42:00,63.9,58.9,25.28,ESE,115,0.0,2.7,84,0.00,,---,0.00,VWS V14.01,2013-07-03 06:42:00,
2013-07-03 00:45:00,63.9,58.9,25.28,SSE,148,3.6,4.0,84,0.00,,---,0.00,VWS V14.01,2013-07-03 06:45:00,
2013-07-03 00:47:00,63.9,58.9,25.28,SE,144,0.0,3.6,84,0.00,,---,0.00,VWS V14.01,2013-07-03 06:47:00,
2013-07-03 00:48:00,63.9,58.6,25.25,SE,144,0.0,0.0,83,0.00,,---,0.00,VWS V14.01,2013-07-03 06:48:00,
2013-07-03 00:51:00,63.9,58.3,25.25,SE,137,0.0,0.0,82,0.00,,---,0.00,VWS V14.01,2013-07-03 06:51:00,
2013-07-03 00:52:00,63.9,58.3,25.25,SE,137,0.0,0.0,82,0.00,,---,0.00,VWS V14.01,2013-07-03 06:52:00,
2013-07-03 00:57:00,63.9,58.3,25.25,SSW,195,0.0,0.0,82,0.00,,---,0.00,VWS V14.01,2013-07-03 06:57:00,
2013-07-03 00:58:00,63.9,58.3,25.25,SSW,195,2.2,2.2,82,0.00,,---,0.00,VWS V14.01,2013-07-03 06:58:00,
2013-07-03 00:59:00,63.9,58.3,25.25,SSW,195,0.0,2.2,82,0.00,,---,0.00,VWS V14.01,2013-07-03 06:59:00,
2013-07-03 01:03:00,63.5,57.6,25.25,South,184,0.0,3.1,81,0.00,,---,0.00,VWS V14.01,2013-07-03 07:03:00,
2013-07-03 01:04:00,63.5,57.6,25.25,South,184,0.0,0.0,81,0.00,,---,0.00,VWS V14.01,2013-07-03 07:04:00,
2013-07-03 01:06:00,63.5,57.6,25.25,South,184,0.0,0.0,81,0.00,,---,0.00,VWS V14.01,2013-07-03 07:06:00,
2013-07-03 01:09:00,63.3,57.4,25.25,South,184,2.7,2.7,81,0.00,,---,0.00,VWS V14.01,2013-07-03 07:09:00,
2013-07-03 01:14:00,63.0,57.0,25.25,South,190,0.0,0.0,81,0.00,,---,0.00,VWS V14.01,2013-07-03 07:14:00,
2013-07-03 01:15:00,63.0,57.0,25.25,South,190,0.0,0.0,81,0.00,,---,0.00,VWS V14.01,2013-07-03 07:15:00,
2013-07-03 01:16:00,63.0,57.0,25.25,South,190,0.0,0.0,81,0.00,,---,0.00,VWS V14.01,2013-07-03 07:16:00,
2013-07-03 01:18:00,62.8,56.9,25.25,SSE,165,0.0,0.0,81,0.00,,---,0.00,VWS V14.01,2013-07-03 07:18:00,
2013-07-03 01:21:00,62.6,57.0,25.25,SSE,165,0.0,0.0,82,0.00,,---,0.00,VWS V14.01,2013-07-03 07:21:00,
2013-07-03 01:22:00,62.6,57.0,25.25,SSE,165,0.0,0.0,82,0.00,,---,0.00,VWS V14.01,2013-07-03 07:22:00,
2013-07-03 01:25:00,62.6,57.0,25.25,SSE,165,3.1,3.1,82,0.00,,---,0.00,VWS V14.01,2013-07-03 07:25:00,
2013-07-03 01:31:00,62.6,57.4,25.25,ESE,122,4.9,4.9,83,0.00,,---,0.00,VWS V14.01,2013-07-03 07:31:00,
2013-07-03 01:32:00,62.8,57.9,25.25,East,84,4.0,4.9,84,0.00,,---,0.00,VWS V14.01,2013-07-03 07:32:00,
2013-07-03 01:34:00,62.8,57.9,25.25,ESE,110,2.7,2.7,84,0.00,,---,0.00,VWS V14.01,2013-07-03 07:34:00,
2013-07-03 01:39:00,62.8,58.5,25.25,ENE,77,3.6,8.1,86,0.00,,---,0.00,VWS V14.01,2013-07-03 07:39:00,
2013-07-03 01:40:00,62.8,58.5,25.25,ENE,67,5.4,5.4,86,0.00,,---,0.00,VWS V14.01,2013-07-03 07:40:00,
2013-07-03 01:41:00,62.8,58.5,25.25,ESE,110,3.6,5.4,86,0.00,,---,0.00,VWS V14.01,2013-07-03 07:41:00,
2013-07-03 01:46:00,63.0,60.0,25.25,SSE,150,3.1,3.1,90,0.00,,---,0.00,VWS V14.01,2013-07-03 07:46:00,
2013-07-03 01:47:00,63.0,60.0,25.25,SSE,150,3.1,3.1,90,0.00,,---,0.00,VWS V14.01,2013-07-03 07:47:00,
2013-07-03 01:50:00,63.0,60.0,25.25,SSW,210,3.1,3.1,90,0.00,,---,0.00,VWS V14.01,2013-07-03 07:50:00,
2013-07-03 01:51:00,63.0,60.0,25.25,SSW,210,0.0,3.1,90,0.00,,---,0.00,VWS V14.01,2013-07-03 07:51:00,
2013-07-03 01:54:00,62.8,59.5,25.25,SSW,210,0.0,0.0,89,0.00,,---,0.00,VWS V14.01,2013-07-03 07:54:00,
2013-07-03 01:59:00,62.6,59.3,25.25,ENE,68,0.0,0.0,89,0.00,,---,0.00,VWS V14.01,2013-07-03 07:59:00,
2013-07-03 02:01:00,62.6,59.3,25.25,ENE,68,0.0,0.0,89,0.00,,---,0.00,VWS V14.01,2013-07-03 08:01:00,
2013-07-03 02:02:00,62.6,59.6,25.25,ENE,68,0.0,0.0,90,0.00,,---,0.00,VWS V14.01,2013-07-03 08:02:00,
2013-07-03 02:04:00,62.6,59.3,25.25,East,94,0.0,0.0,89,0.00,,---,0.00,VWS V14.01,2013-07-03 08:04:00,
2013-07-03 02:07:00,62.8,59.5,25.25,SSE,152,3.1,3.1,89,0.00,,---,0.00,VWS V14.01,2013-07-03 08:07:00,
2013-07-03 02:09:00,62.8,59.5,25.25,SE,131,0.0,0.0,89,0.00,,---,0.00,VWS V14.01,2013-07-03 08:09:00,
2013-07-03 02:11:00,63.0,59.7,25.25,SE,125,0.0,2.7,89,0.00,,---,0.00,VWS V14.01,2013-07-03 08:11:00,
2013-07-03 02:13:00,63.0,59.7,25.25,SSE,160,0.0,2.7,89,0.00,,---,0.00,VWS V14.01,2013-07-03 08:13:00,
2013-07-03 02:14:00,63.0,59.7,25.25,SSE,160,0.0,0.0,89,0.00,,---,0.00,VWS V14.01,2013-07-03 08:14:00,
2013-07-03 02:15:00,63.0,59.7,25.25,SSE,160,0.0,0.0,89,0.00,,---,0.00,VWS V14.01,2013-07-03 08:15:00,
2013-07-03 02:17:00,63.0,59.7,25.25,SSE,160,0.0,0.0,89,0.00,,---,0.00,VWS V14.01,2013-07-03 08:17:00,
2013-07-03 02:21:00,63.1,59.8,25.25,NNE,31,3.6,3.6,89,0.00,,---,0.00,VWS V14.01,2013-07-03 08:21:00,
2013-07-03 02:23:00,63.3,59.7,25.25,ESE,103,3.6,3.6,88,0.00,,---,0.00,VWS V14.01,2013-07-03 08:23:00,
2013-07-03 02:26:00,63.3,59.7,25.25,ENE,58,2.7,2.7,88,0.00,,---,0.00,VWS V14.01,2013-07-03 08:26:00,
2013-07-03 02:28:00,63.5,59.9,25.25,ENE,58,2.7,2.7,88,0.00,,---,0.00,VWS V14.01,2013-07-03 08:28:00,
2013-07-03 02:30:00,63.5,59.6,25.25,East,92,3.1,3.1,87,0.00,,---,0.00,VWS V14.01,2013-07-03 08:30:00,
2013-07-03 02:31:00,63.5,59.6,25.25,East,92,3.1,3.1,87,0.00,,---,0.00,VWS V14.01,2013-07-03 08:31:00,
2013-07-03 02:34:00,63.5,59.6,25.25,SE,139,3.1,3.1,87,0.00,,---,0.00,VWS V14.01,2013-07-03 08:34:00,
2013-07-03 02:37:00,63.5,59.6,25.25,SE,139,3.1,3.1,87,0.00,,---,0.00,VWS V14.01,2013-07-03 08:37:00,
2013-07-03 02:40:00,63.5,59.6,25.25,ESE,115,0.0,0.0,87,0.00,,---,0.00,VWS V14.01,2013-07-03 08:40:00,
2013-07-03 02:41:00,63.5,59.2,25.25,East,100,4.0,4.0,86,0.00,,---,0.00,VWS V14.01,2013-07-03 08:41:00,
2013-07-03 02:43:00,63.5,59.2,25.25,ESE,118,3.1,4.0,86,0.00,,---,0.00,VWS V14.01,2013-07-03 08:43:00,
2013-07-03 02:45:00,63.5,58.6,25.25,ESE,119,5.4,5.4,84,0.00,,---,0.00,VWS V14.01,2013-07-03 08:45:00,
2013-07-03 02:46:00,63.5,58.6,25.25,ESE,119,5.4,5.4,84,0.00,,---,0.00,VWS V14.01,2013-07-03 08:46:00,
2013-07-03 02:51:00,63.7,58.4,25.25,East,82,6.3,6.3,83,0.00,,---,0.00,VWS V14.01,2013-07-03 08:51:00,
2013-07-03 02:52:00,63.7,58.4,25.25,East,93,5.8,6.3,83,0.00,,---,0.00,VWS V14.01,2013-07-03 08:52:00,
2013-07-03 02:54:00,63.7,58.4,25.25,East,90,8.1,8.1,83,0.00,,---,0.00,VWS V14.01,2013-07-03 08:54:00,
2013-07-03 02:56:00,63.7,58.4,25.25,East,90,8.1,8.1,83,0.00,,---,0.00,VWS V14.01,2013-07-03 08:56:00,
2013-07-03 02:58:00,63.7,58.4,25.25,SSE,155,3.1,8.1,83,0.00,,---,0.00,VWS V14.01,2013-07-03 08:58:00,
2013-07-03 03:02:00,63.7,58.4,25.25,ENE,66,4.9,5.4,83,0.00,,---,0.00,VWS V14.01,2013-07-03 09:02:00,
2013-07-03 03:04:00,63.7,58.4,25.25,ENE,66,4.9,4.9,83,0.00,,---,0.00,VWS V14.01,2013-07-03 09:04:00,
2013-07-03 03:07:00,63.7,58.1,25.25,ENE,63,0.0,0.0,82,0.00,,---,0.00,VWS V14.01,2013-07-03 09:07:00,
2013-07-03 03:09:00,63.5,57.9,25.25,ENE,63,0.0,0.0,82,0.00,,---,0.00,VWS V14.01,2013-07-03 09:09:00,
2013-07-03 03:11:00,63.5,57.6,25.25,East,85,5.8,5.8,81,0.00,,---,0.00,VWS V14.01,2013-07-03 09:11:00,
2013-07-03 03:12:00,63.5,57.6,25.25,East,85,5.8,5.8,81,0.00,,---,0.00,VWS V14.01,2013-07-03 09:12:00,
2013-07-03 03:17:00,63.5,56.9,25.25,SE,127,3.1,3.1,79,0.00,,---,0.00,VWS V14.01,2013-07-03 09:17:00,
2013-07-03 03:19:00,63.5,56.5,25.25,East,95,4.0,5.4,78,0.00,,---,0.00,VWS V14.01,2013-07-03 09:19:00,
2013-07-03 03:20:00,63.7,56.7,25.25,SE,131,2.7,4.0,78,0.00,,---,0.00,VWS V14.01,2013-07-03 09:20:00,
2013-07-03 03:21:00,63.7,56.7,25.25,SE,131,2.7,2.7,78,0.00,,---,0.00,VWS V14.01,2013-07-03 09:21:00,
2013-07-03 03:24:00,63.7,56.7,25.25,SE,131,0.0,2.7,78,0.00,,---,0.00,VWS V14.01,2013-07-03 09:24:00,
2013-07-03 03:25:00,63.7,56.3,25.25,SE,131,0.0,0.0,77,0.00,,---,0.00,VWS V14.01,2013-07-03 09:25:00,
2013-07-03 03:26:00,63.7,56.3,25.25,SE,131,0.0,0.0,77,0.00,,---,0.00,VWS V14.01,2013-07-03 09:26:00,
2013-07-03 03:32:00,63.5,55.4,25.25,SE,142,3.1,3.1,75,0.00,,---,0.00,VWS V14.01,2013-07-03 09:32:00,
2013-07-03 03:34:00,63.5,54.7,25.25,East,82,3.1,3.1,73,0.00,,---,0.00,VWS V14.01,2013-07-03 09:34:00,
2013-07-03 03:36:00,63.5,54.7,25.25,SE,140,3.6,3.6,73,0.00,,---,0.00,VWS V14.01,2013-07-03 09:36:00,
2013-07-03 03:37:00,63.5,54.7,25.25,NE,40,6.3,6.3,73,0.00,,---,0.00,VWS V14.01,2013-07-03 09:37:00,
2013-07-03 03:38:00,63.5,54.3,25.25,NE,40,6.3,6.3,72,0.00,,---,0.00,VWS V14.01,2013-07-03 09:38:00,
2013-07-03 03:41:00,63.5,53.9,25.25,SE,143,0.0,0.0,71,0.00,,---,0.00,VWS V14.01,2013-07-03 09:41:00,
2013-07-03 03:43:00,63.5,54.3,25.25,SE,143,0.0,0.0,72,0.00,,---,0.00,VWS V14.01,2013-07-03 09:43:00,
2013-07-03 03:44:00,63.5,54.3,25.25,ESE,109,4.9,4.9,72,0.00,,---,0.00,VWS V14.01,2013-07-03 09:44:00,
2013-07-03 03:49:00,63.5,54.3,25.25,East,90,4.0,4.0,72,0.00,,---,0.00,VWS V14.01,2013-07-03 09:49:00,
2013-07-03 03:50:00,63.5,54.3,25.25,SE,131,3.1,4.0,72,0.00,,---,0.00,VWS V14.01,2013-07-03 09:50:00,
2013-07-03 03:51:00,63.3,54.2,25.25,SE,131,3.1,3.1,72,0.00,,---,0.00,VWS V14.01,2013-07-03 09:51:00,
2013-07-03 03:52:00,63.3,54.2,25.25,SE,131,3.1,3.1,72,0.00,,---,0.00,VWS V14.01,2013-07-03 09:52:00,
2013-07-03 03:56:00,63.1,54.3,25.25,East,95,2.7,2.7,73,0.00,,---,0.00,VWS V14.01,2013-07-03 09:56:00,
2013-07-03 04:00:00,63.0,54.2,25.25,ENE,78,0.0,0.0,73,0.00,,---,0.00,VWS V14.01,2013-07-03 10:00:00,
2013-07-03 04:02:00,62.8,54.0,25.25,ENE,78,0.0,0.0,73,0.00,,---,0.00,VWS V14.01,2013-07-03 10:02:00,
2013-07-03 04:05:00,62.6,54.2,25.25,ENE,78,0.0,0.0,74,0.00,,---,0.00,VWS V14.01,2013-07-03 10:05:00,
2013-07-03 04:06:00,62.6,54.2,25.25,ENE,78,0.0,0.0,74,0.00,,---,0.00,VWS V14.01,2013-07-03 10:06:00,
2013-07-03 04:09:00,62.4,54.4,25.25,ENE,78,0.0,0.0,75,0.00,,---,0.00,VWS V14.01,2013-07-03 10:09:00,
2013-07-03 04:11:00,62.2,54.6,25.25,ENE,78,0.0,0.0,76,0.00,,---,0.00,VWS V14.01,2013-07-03 10:11:00,
2013-07-03 04:12:00,62.2,54.6,25.25,ENE,78,0.0,0.0,76,0.00,,---,0.00,VWS V14.01,2013-07-03 10:12:00,
2013-07-03 04:13:00,62.2,54.6,25.25,ENE,78,0.0,0.0,76,0.00,,---,0.00,VWS V14.01,2013-07-03 10:13:00,
2013-07-03 04:15:00,62.2,54.6,25.25,South,182,0.0,0.0,76,0.00,,---,0.00,VWS V14.01,2013-07-03 10:15:00,
2013-07-03 04:18:00,62.2,54.6,25.25,SSW,198,2.2,2.2,76,0.00,,---,0.00,VWS V14.01,2013-07-03 10:18:00,
2013-07-03 04:25:00,62.6,54.2,25.25,ESE,111,3.1,3.1,74,0.00,,---,0.00,VWS V14.01,2013-07-03 10:25:00,
2013-07-03 04:26:00,62.6,54.2,25.25,ESE,111,3.1,3.1,74,0.00,,---,0.00,VWS V14.01,2013-07-03 10:26:00,
2013-07-03 04:27:00,62.4,53.7,25.25,ESE,111,3.1,3.1,73,0.00,,---,0.00,VWS V14.01,2013-07-03 10:27:00,
2013-07-03 04:31:00,62.8,53.2,25.25,NE,50,5.4,5.4,71,0.00,,---,0.00,VWS V14.01,2013-07-03 10:31:00,
2013-07-03 04:32:00,62.8,53.2,25.25,NE,50,5.4,5.4,71,0.00,,---,0.00,VWS V14.01,2013-07-03 10:32:00,
2013-07-03 04:36:00,63.1,53.6,25.25,NE,35,2.7,2.7,71,0.00,,---,0.00,VWS V14.01,2013-07-03 10:36:00,
2013-07-03 04:37:00,63.1,53.6,25.25,NE,35,0.0,2.7,71,0.00,,---,0.00,VWS V14.01,2013-07-03 10:37:00,
2013-07-03 04:40:00,63.0,53.4,25.25,SW,218,4.0,4.0,71,0.00,,---,0.00,VWS V14.01,2013-07-03 10:40:00,
2013-07-03 04:41:00,63.0,53.4,25.25,SW,218,4.0,4.0,71,0.00,,---,0.00,VWS V14.01,2013-07-03 10:41:00,
2013-07-03 04:43:00,62.6,53.1,25.25,WNW,287,0.0,4.0,71,0.00,,---,0.00,VWS V14.01,2013-07-03 10:43:00,
2013-07-03 04:47:00,62.2,53.1,25.25,WNW,287,2.2,2.2,72,0.00,,---,0.00,VWS V14.01,2013-07-03 10:47:00,
2013-07-03 04:48:00,62.1,53.3,25.25,WNW,287,2.2,2.2,73,0.00,,---,0.00,VWS V14.01,2013-07-03 10:48:00,
2013-07-03 04:51:00,61.7,53.3,25.25,WNW,285,0.0,0.0,74,0.00,,---,0.00,VWS V14.01,2013-07-03 10:51:00,
2013-07-03 04:53:00,61.7,53.7,25.25,WNW,285,0.0,0.0,75,0.00,,---,0.00,VWS V14.01,2013-07-03 10:53:00,
2013-07-03 04:55:00,61.3,53.7,25.25,SW,230,3.1,3.1,76,0.00,,---,0.00,VWS V14.01,2013-07-03 10:55:00,
2013-07-03 04:57:00,61.3,54.1,25.25,SW,230,3.1,3.1,77,0.00,,---,0.00,VWS V14.01,2013-07-03 10:57:00,
2013-07-03 05:01:00,61.3,54.4,25.25,West,271,2.7,2.7,78,0.00,,---,0.00,VWS V14.01,2013-07-03 11:01:00,
2013-07-03 05:02:00,61.2,55.0,25.25,SW,222,0.0,2.7,80,0.00,,---,0.00,VWS V14.01,2013-07-03 11:02:00,
2013-07-03 05:03:00,61.2,55.0,25.28,ESE,111,3.1,3.1,80,0.00,,---,0.00,VWS V14.01,2013-07-03 11:03:00,
2013-07-03 05:07:00,61.0,55.5,25.28,WNW,295,2.7,2.7,82,0.00,,---,0.00,VWS V14.01,2013-07-03 11:07:00,
2013-07-03 05:08:00,61.0,55.5,25.28,East,85,0.0,2.7,82,0.00,,---,0.00,VWS V14.01,2013-07-03 11:08:00,
2013-07-03 05:10:00,61.2,56.3,25.28,ENE,78,0.0,0.0,84,0.00,,---,0.00,VWS V14.01,2013-07-03 11:10:00,
2013-07-03 05:11:00,61.2,56.3,25.28,SSE,154,0.0,0.0,84,0.00,,---,0.00,VWS V14.01,2013-07-03 11:11:00,
2013-07-03 05:14:00,61.2,57.0,25.28,North,350,0.0,2.2,86,0.00,,---,0.00,VWS V14.01,2013-07-03 11:14:00,
2013-07-03 05:17:00,61.2,57.0,25.28,NE,53,0.0,0.0,86,0.00,,---,0.00,VWS V14.01,2013-07-03 11:17:00,
2013-07-03 05:20:00,61.0,56.8,25.28,West,272,0.0,0.0,86,0.00,,---,0.00,VWS V14.01,2013-07-03 11:20:00,
2013-07-03 05:24:00,61.2,57.6,25.28,NE,47,0.0,0.0,88,0.00,,---,0.00,VWS V14.01,2013-07-03 11:24:00,
2013-07-03 05:25:00,61.2,57.6,25.28,North,11,0.0,0.0,88,0.00,,---,0.00,VWS V14.01,2013-07-03 11:25:00,
2013-07-03 05:27:00,61.2,57.9,25.28,NE,47,2.7,2.7,89,0.00,,---,0.00,VWS V14.01,2013-07-03 11:27:00,
2013-07-03 05:31:00,61.3,58.7,25.28,SE,135,0.0,0.0,91,0.00,,---,0.00,VWS V14.01,2013-07-03 11:31:00,
2013-07-03 05:33:00,61.3,58.7,25.28,SE,135,0.0,0.0,91,0.00,,---,0.00,VWS V14.01,2013-07-03 11:33:00,
2013-07-03 05:36:00,61.3,58.7,25.28,East,81,3.1,3.1,91,0.00,,---,0.00,VWS V14.01,2013-07-03 11:36:00,
2013-07-03 05:38:00,61.3,58.7,25.28,ENE,69,2.7,3.1,91,0.00,,---,0.00,VWS V14.01,2013-07-03 11:38:00,
2013-07-03 05:39:00,61.3,58.7,25.28,ENE,69,2.7,2.7,91,0.00,,---,0.00,VWS V14.01,2013-07-03 11:39:00,
2013-07-03 05:43:00,61.5,58.6,25.28,NE,36,0.0,2.7,90,0.00,,---,0.00,VWS V14.01,2013-07-03 11:43:00,
2013-07-03 05:45:00,61.5,58.6,25.28,SE,129,2.7,2.7,90,0.00,,---,0.00,VWS V14.01,2013-07-03 11:45:00,
2013-07-03 05:46:00,61.5,58.6,25.28,SE,129,2.7,2.7,90,0.00,,---,0.00,VWS V14.01,2013-07-03 11:46:00,
2013-07-03 05:50:00,61.7,58.7,25.28,SE,129,2.7,2.7,90,0.00,,---,0.00,VWS V14.01,2013-07-03 11:50:00,
2013-07-03 05:54:00,61.7,58.7,25.28,NNW,345,2.7,2.7,90,0.00,,---,0.00,VWS V14.01,2013-07-03 11:54:00,
2013-07-03 05:55:00,61.7,58.7,25.28,NNW,345,2.7,2.7,90,0.00,,---,0.00,VWS V14.01,2013-07-03 11:55:00,
2013-07-03 05:59:00,62.1,58.5,25.28,NE,46,3.1,3.1,88,0.00,,---,0.00,VWS V14.01,2013-07-03 11:59:00,
2013-07-03 06:02:00,62.1,58.2,25.28,ENE,58,3.1,3.1,87,0.00,,---,0.00,VWS V14.01,2013-07-03 12:02:00,
2013-07-03 06:05:00,62.4,58.2,25.28,East,101,4.9,4.9,86,0.00,,---,0.00,VWS V14.01,2013-07-03 12:05:00,
2013-07-03 06:06:00,62.4,58.2,25.28,ENE,74,5.8,5.8,86,0.00,,---,0.00,VWS V14.01,2013-07-03 12:06:00,
2013-07-03 06:07:00,62.6,57.4,25.28,ENE,74,5.8,5.8,83,0.00,,---,0.00,VWS V14.01,2013-07-03 12:07:00,
2013-07-03 06:11:00,63.0,57.7,25.28,NE,42,0.0,0.0,83,0.00,,---,0.00,VWS V14.01,2013-07-03 12:11:00,
2013-07-03 06:14:00,63.0,57.7,25.28,East,85,2.7,2.7,83,0.00,,---,0.00,VWS V14.01,2013-07-03 12:14:00,
2013-07-03 06:16:00,63.5,57.9,25.28,ESE,122,3.1,3.1,82,0.00,,---,0.00,VWS V14.01,2013-07-03 12:16:00,
2013-07-03 06:17:00,63.5,57.9,25.28,ESE,122,0.0,3.1,82,0.00,,---,0.00,VWS V14.01,2013-07-03 12:17:00,
2013-07-03 06:18:00,63.7,57.8,25.28,NE,36,2.7,2.7,81,0.00,,---,0.00,VWS V14.01,2013-07-03 12:18:00,
2013-07-03 06:21:00,64.0,57.4,25.28,NE,36,2.7,2.7,79,0.00,,---,0.00,VWS V14.01,2013-07-03 12:21:00,
2013-07-03 06:22:00,64.0,57.4,25.28,ENE,57,3.1,3.1,79,0.00,,---,0.00,VWS V14.01,2013-07-03 12:22:00,
2013-07-03 06:25:00,64.4,57.0,25.28,ENE,70,2.2,3.1,77,0.00,,---,0.00,VWS V14.01,2013-07-03 12:25:00,
2013-07-03 06:27:00,64.4,57.0,25.28,NNE,15,5.4,5.4,77,0.00,,---,0.00,VWS V14.01,2013-07-03 12:27:00,
2013-07-03 06:31:00,64.8,56.3,25.28,ENE,72,0.0,0.0,74,0.00,,---,0.00,VWS V14.01,2013-07-03 12:31:00,
2013-07-03 06:34:00,65.3,56.8,25.28,ESE,108,3.6,3.6,74,0.00,,---,0.00,VWS V14.01,2013-07-03 12:34:00,
2013-07-03 06:36:00,65.7,56.4,25.28,ESE,108,3.6,3.6,72,0.00,,---,0.00,VWS V14.01,2013-07-03 12:36:00,
2013-07-03 06:38:00,65.8,56.6,25.28,ESE,108,3.6,3.6,72,0.00,,---,0.00,VWS V14.01,2013-07-03 12:38:00,
2013-07-03 06:41:00,66.0,55.2,25.28,ESE,108,3.6,3.6,68,0.00,,---,0.00,VWS V14.01,2013-07-03 12:41:00,
2013-07-03 06:43:00,66.2,55.7,25.28,East,85,3.1,3.1,69,0.00,,---,0.00,VWS V14.01,2013-07-03 12:43:00,
2013-07-03 06:46:00,66.2,55.3,25.28,ENE,76,3.1,5.4,68,0.00,,---,0.00,VWS V14.01,2013-07-03 12:46:00,
2013-07-03 06:48:00,66.2,55.3,25.28,ENE,76,3.1,3.1,68,0.00,,---,0.00,VWS V14.01,2013-07-03 12:48:00,
2013-07-03 06:49:00,66.2,55.3,25.28,ENE,76,3.1,3.1,68,0.00,,---,0.00,VWS V14.01,2013-07-03 12:49:00,
2013-07-03 06:52:00,66.2,55.3,25.28,ENE,76,3.1,3.1,68,0.00,,---,0.00,VWS V14.01,2013-07-03 12:52:00,
2013-07-03 06:55:00,66.4,55.5,25.28,NW,315,0.0,3.1,68,0.00,,---,0.00,VWS V14.01,2013-07-03 12:55:00,
2013-07-03 06:57:00,66.4,55.9,25.28,NW,315,0.0,0.0,69,0.00,,---,0.00,VWS V14.01,2013-07-03 12:57:00,
2013-07-03 06:58:00,66.6,56.1,25.28,NW,315,0.0,0.0,69,0.00,,---,0.00,VWS V14.01,2013-07-03 12:58:00,
2013-07-03 07:02:00,66.6,55.7,25.28,WSW,241,0.0,0.0,68,0.00,,---,0.00,VWS V14.01,2013-07-03 13:02:00,
2013-07-03 07:05:00,66.7,55.8,25.28,NW,323,2.7,2.7,68,0.00,,---,0.00,VWS V14.01,2013-07-03 13:05:00,
2013-07-03 07:08:00,67.1,56.6,25.28,NW,322,0.0,0.0,69,0.00,,---,0.00,VWS V14.01,2013-07-03 13:08:00,
2013-07-03 07:11:00,67.3,56.8,25.28,NW,322,0.0,0.0,69,0.00,,---,0.00,VWS V14.01,2013-07-03 13:11:00,
2013-07-03 07:14:00,68.2,53.3,25.28,NW,322,0.0,0.0,59,0.00,,---,0.00,VWS V14.01,2013-07-03 13:14:00,
2013-07-03 07:16:00,68.2,53.3,25.28,SSE,163,5.4,5.4,59,0.00,,---,0.00,VWS V14.01,2013-07-03 13:16:00,
2013-07-03 07:17:00,68.7,48.8,25.28,SSE,163,5.4,5.4,49,0.00,,---,0.00,VWS V14.01,2013-07-03 13:17:00,
2013-07-03 07:21:00,68.7,48.8,25.28,SE,129,7.6,7.6,49,0.00,,---,0.00,VWS V14.01,2013-07-03 13:21:00,
2013-07-03 07:23:00,69.8,48.7,25.28,SE,129,7.6,7.6,47,0.00,,---,0.00,VWS V14.01,2013-07-03 13:23:00,
2013-07-03 07:25:00,70.3,50.3,25.28,SE,129,7.6,7.6,49,0.00,,---,0.00,VWS V14.01,2013-07-03 13:25:00,
2013-07-03 07:26:00,70.3,50.3,25.28,SE,136,3.1,7.6,49,0.00,,---,0.00,VWS V14.01,2013-07-03 13:26:00,
2013-07-03 07:27:00,70.5,49.3,25.28,SE,136,3.1,3.1,47,0.00,,---,0.00,VWS V14.01,2013-07-03 13:27:00,
2013-07-03 07:28:00,70.9,49.1,25.28,South,187,5.8,5.8,46,0.00,,---,0.00,VWS V14.01,2013-07-03 13:28:00,
2013-07-03 07:30:00,70.9,49.1,25.28,East,83,4.0,4.0,46,0.00,,---,0.00,VWS V14.01,2013-07-03 13:30:00,
2013-07-03 07:33:00,70.9,49.1,25.28,South,172,3.1,4.0,46,0.00,,---,0.00,VWS V14.01,2013-07-03 13:33:00,
2013-07-03 07:34:00,71.8,50.5,25.28,SE,137,3.6,3.6,47,0.00,,---,0.00,VWS V14.01,2013-07-03 13:34:00,
2013-07-03 07:38:00,72.3,49.8,25.28,East,84,3.6,3.6,45,0.00,,---,0.00,VWS V14.01,2013-07-03 13:38:00,
2013-07-03 07:40:00,72.5,50.0,25.28,East,87,3.6,3.6,45,0.00,,---,0.00,VWS V14.01,2013-07-03 13:40:00,
2013-07-03 07:41:00,72.5,50.0,25.28,ENE,57,5.8,5.8,45,0.00,,---,0.00,VWS V14.01,2013-07-03 13:41:00,
2013-07-03 07:47:00,72.5,50.0,25.28,NNE,27,3.1,3.1,45,0.00,,---,0.00,VWS V14.01,2013-07-03 13:47:00,
2013-07-03 07:48:00,72.9,52.6,25.28,East,97,5.4,5.4,49,0.00,,---,0.00,VWS V14.01,2013-07-03 13:48:00,
2013-07-03 07:49:00,72.9,52.6,25.28,East,97,5.4,5.4,49,0.00,,---,0.00,VWS V14.01,2013-07-03 13:49:00,
2013-07-03 07:50:00,72.7,51.9,25.28,ENE,58,4.9,5.4,48,0.00,,---,0.00,VWS V14.01,2013-07-03 13:50:00,
2013-07-03 07:53:00,72.9,52.6,25.28,ENE,72,3.1,3.1,49,0.00,,---,0.00,VWS V14.01,2013-07-03 13:53:00,
2013-07-03 07:55:00,72.9,52.6,25.28,ENE,72,3.1,3.1,49,0.00,,---,0.00,VWS V14.01,2013-07-03 13:55:00,
2013-07-03 07:56:00,73.0,52.8,25.28,ENE,72,3.1,3.1,49,0.00,,---,0.00,VWS V14.01,2013-07-03 13:56:00,
2013-07-03 07:58:00,73.0,52.8,25.28,ENE,72,3.1,3.1,49,0.00,,---,0.00,VWS V14.01,2013-07-03 13:58:00,
2013-07-03 07:59:00,73.4,48.9,25.28,ENE,72,3.1,3.1,42,0.00,,---,0.00,VWS V14.01,2013-07-03 13:59:00,
2013-07-03 08:00:00,73.4,48.9,25.28,East,97,4.0,4.0,42,0.00,,---,0.00,VWS V14.01,2013-07-03 14:00:00,
2013-07-03 08:04:00,73.4,48.9,25.28,ENE,78,2.2,5.8,42,0.00,,---,0.00,VWS V14.01,2013-07-03 14:04:00,
2013-07-03 08:05:00,73.4,48.9,25.28,SSE,161,2.7,4.0,42,0.00,,---,0.00,VWS V14.01,2013-07-03 14:05:00,
2013-07-03 08:09:00,73.8,52.3,25.28,East,95,5.4,5.4,47,0.00,,---,0.00,VWS V14.01,2013-07-03 14:09:00,
2013-07-03 08:10:00,73.4,50.8,25.28,SW,218,2.2,5.4,45,0.00,,---,0.00,VWS V14.01,2013-07-03 14:10:00,
2013-07-03 08:11:00,73.4,50.8,25.28,SW,218,2.2,2.2,45,0.00,,---,0.00,VWS V14.01,2013-07-03 14:11:00,
2013-07-03 08:16:00,73.0,48.6,25.28,SE,126,3.1,3.1,42,0.00,,---,0.00,VWS V14.01,2013-07-03 14:16:00,
2013-07-03 08:17:00,73.0,48.6,25.28,SE,126,3.1,3.1,42,0.00,,---,0.00,VWS V14.01,2013-07-03 14:17:00,
2013-07-03 08:21:00,72.9,51.5,25.31,NE,48,4.0,4.0,47,0.00,,---,0.00,VWS V14.01,2013-07-03 14:21:00,
2013-07-03 08:22:00,72.9,51.5,25.31,NE,48,4.0,4.0,47,0.00,,---,0.00,VWS V14.01,2013-07-03 14:22:00,
2013-07-03 08:26:00,72.9,51.5,25.31,South,173,5.4,5.4,47,0.00,,---,0.00,VWS V14.01,2013-07-03 14:26:00,
2013-07-03 08:30:00,72.9,51.5,25.31,South,173,5.4,5.4,47,0.00,,---,0.00,VWS V14.01,2013-07-03 14:30:00,
2013-07-03 08:31:00,73.0,48.6,25.31,SSW,195,4.9,5.4,42,0.00,,---,0.00,VWS V14.01,2013-07-03 14:31:00,
2013-07-03 08:32:00,73.2,48.8,25.31,SSW,195,4.9,4.9,42,0.00,,---,0.00,VWS V14.01,2013-07-03 14:32:00,
2013-07-03 08:36:00,73.9,49.4,25.31,ESE,102,2.7,3.1,42,0.00,,---,0.00,VWS V14.01,2013-07-03 14:36:00,
2013-07-03 08:38:00,74.1,48.3,25.31,SSE,153,0.0,2.7,40,0.00,,---,0.00,VWS V14.01,2013-07-03 14:38:00,
2013-07-03 08:41:00,74.8,50.2,25.31,NE,43,3.1,3.1,42,0.00,,---,0.00,VWS V14.01,2013-07-03 14:41:00,
2013-07-03 08:43:00,74.8,50.2,25.31,SE,140,4.9,4.9,42,0.00,,---,0.00,VWS V14.01,2013-07-03 14:43:00,
2013-07-03 08:44:00,74.8,50.2,25.31,SE,140,4.9,4.9,42,0.00,,---,0.00,VWS V14.01,2013-07-03 14:44:00,
2013-07-03 08:46:00,75.2,49.2,25.31,NE,54,3.1,3.1,40,0.00,,---,0.00,VWS V14.01,2013-07-03 14:46:00,
2013-07-03 08:48:00,75.6,49.6,25.31,North,353,3.6,3.6,40,0.00,,---,0.00,VWS V14.01,2013-07-03 14:48:00,
2013-07-03 08:49:00,75.7,50.4,25.31,NE,51,4.9,4.9,41,0.00,,---,0.00,VWS V14.01,2013-07-03 14:49:00,
2013-07-03 08:50:00,75.7,50.4,25.31,NE,51,4.9,4.9,41,0.00,,---,0.00,VWS V14.01,2013-07-03 14:50:00,
2013-07-03 08:56:00,76.3,52.2,25.31,ESE,115,2.2,2.2,43,0.00,,---,0.00,VWS V14.01,2013-07-03 14:56:00,
2013-07-03 08:57:00,76.3,50.9,25.31,ESE,115,2.2,2.2,41,0.00,,---,0.00,VWS V14.01,2013-07-03 14:57:00,
2013-07-03 08:58:00,76.5,49.7,25.31,NNE,29,3.6,3.6,39,0.00,,---,0.00,VWS V14.01,2013-07-03 14:58:00,
2013-07-03 08:59:00,76.5,49.7,25.31,SE,137,4.0,4.0,39,0.00,,---,0.00,VWS V14.01,2013-07-03 14:59:00,
2013-07-03 09:04:00,76.5,52.3,25.31,NE,38,3.6,4.9,43,0.00,,---,0.00,VWS V14.01,2013-07-03 15:04:00,
2013-07-03 09:05:00,76.5,51.7,25.31,NE,38,3.6,3.6,42,0.00,,---,0.00,VWS V14.01,2013-07-03 15:05:00,
2013-07-03 09:06:00,76.5,51.7,25.31,NE,38,3.6,3.6,42,0.00,,---,0.00,VWS V14.01,2013-07-03 15:06:00,
2013-07-03 09:09:00,76.3,50.9,25.31,East,85,5.4,5.4,41,0.00,,---,0.00,VWS V14.01,2013-07-03 15:09:00,
2013-07-03 09:10:00,75.9,49.2,25.31,East,85,5.4,5.4,39,0.00,,---,0.00,VWS V14.01,2013-07-03 15:10:00,
2013-07-03 09:12:00,75.9,49.2,25.31,East,83,6.3,6.3,39,0.00,,---,0.00,VWS V14.01,2013-07-03 15:12:00,
2013-07-03 09:15:00,75.6,51.5,25.31,NNW,331,3.6,6.3,43,0.00,,---,0.00,VWS V14.01,2013-07-03 15:15:00,
2013-07-03 09:18:00,75.9,51.2,25.31,ENE,66,4.0,4.0,42,0.00,,---,0.00,VWS V14.01,2013-07-03 15:18:00,
2013-07-03 09:23:00,76.8,52.7,25.31,ENE,66,4.0,4.0,43,0.00,,---,0.00,VWS V14.01,2013-07-03 15:23:00,
2013-07-03 09:24:00,77.2,52.3,25.31,NNE,31,2.7,4.0,42,0.00,,---,0.00,VWS V14.01,2013-07-03 15:24:00,
2013-07-03 09:26:00,77.7,52.2,25.31,NE,54,4.0,4.0,41,0.00,,---,0.00,VWS V14.01,2013-07-03 15:26:00,
2013-07-03 09:28:00,78.4,52.8,25.31,NNW,341,4.9,4.9,41,0.00,,---,0.00,VWS V14.01,2013-07-03 15:28:00,
2013-07-03 09:30:00,78.6,52.3,25.31,North,357,2.7,4.9,40,0.00,,---,0.00,VWS V14.01,2013-07-03 15:30:00,
2013-07-03 09:33:00,78.3,51.3,25.31,NE,37,4.0,4.0,39,0.00,,---,0.00,VWS V14.01,2013-07-03 15:33:00,
2013-07-03 09:38:00,77.2,51.7,25.31,NW,314,0.0,2.7,41,0.00,,---,0.00,VWS V14.01,2013-07-03 15:38:00,
2013-07-03 09:41:00,77.2,51.7,25.31,NW,324,3.1,3.1,41,0.00,,---,0.00,VWS V14.01,2013-07-03 15:41:00,
2013-07-03 09:42:00,75.9,51.8,25.31,NNW,327,2.7,3.1,43,0.00,,---,0.00,VWS V14.01,2013-07-03 15:42:00,
2013-07-03 09:43:00,75.9,51.8,25.31,NNW,327,2.7,2.7,43,0.00,,---,0.00,VWS V14.01,2013-07-03 15:43:00,
2013-07-03 09:48:00,75.0,51.0,25.31,NW,320,2.7,3.1,43,0.00,,---,0.00,VWS V14.01,2013-07-03 15:48:00,
2013-07-03 09:51:00,75.0,54.0,25.31,East,87,2.7,2.7,48,0.00,,---,0.00,VWS V14.01,2013-07-03 15:51:00,
2013-07-03 09:52:00,75.2,54.2,25.31,East,87,2.7,2.7,48,0.00,,---,0.00,VWS V14.01,2013-07-03 15:52:00,
2013-07-03 09:53:00,75.2,54.2,25.31,East,91,4.9,4.9,48,0.00,,---,0.00,VWS V14.01,2013-07-03 15:53:00,
2013-07-03 09:55:00,75.4,54.9,25.31,East,91,4.9,4.9,49,0.00,,---,0.00,VWS V14.01,2013-07-03 15:55:00,
2013-07-03 09:56:00,75.4,54.9,25.31,East,91,4.9,4.9,49,0.00,,---,0.00,VWS V14.01,2013-07-03 15:56:00,
2013-07-03 09:57:00,76.1,53.2,25.31,NW,325,4.9,4.9,45,0.00,,---,0.00,VWS V14.01,2013-07-03 15:57:00,
2013-07-03 10:02:00,77.2,52.3,25.31,NNE,22,2.7,2.7,42,0.00,,---,0.00,VWS V14.01,2013-07-03 16:02:00,
2013-07-03 10:03:00,77.2,52.3,25.31,NNE,22,2.7,2.7,42,0.00,,---,0.00,VWS V14.01,2013-07-03 16:03:00,
2013-07-03 10:04:00,77.4,51.8,25.31,SE,125,3.1,4.9,41,0.00,,---,0.00,VWS V14.01,2013-07-03 16:04:00,
2013-07-03 10:09:00,77.4,53.1,25.31,NNW,332,3.6,3.6,43,0.00,,---,0.00,VWS V14.01,2013-07-03 16:09:00,
2013-07-03 10:14:00,77.7,52.8,25.31,NNE,12,3.1,3.1,42,0.00,,---,0.00,VWS V14.01,2013-07-03 16:14:00,
2013-07-03 10:15:00,77.5,52.7,25.31,East,84,7.6,7.6,42,0.00,,---,0.00,VWS V14.01,2013-07-03 16:15:00,
2013-07-03 10:16:00,77.5,52.7,25.31,East,84,7.6,7.6,42,0.00,,---,0.00,VWS V14.01,2013-07-03 16:16:00,
2013-07-03 10:19:00,76.8,53.3,25.31,ENE,75,2.2,7.6,44,0.00,,---,0.00,VWS V14.01,2013-07-03 16:19:00,
2013-07-03 10:20:00,76.5,53.6,25.31,NNW,332,5.4,5.4,45,0.00,,---,0.00,VWS V14.01,2013-07-03 16:20:00,
2013-07-03 10:21:00,76.5,53.6,25.31,NNW,332,5.4,5.4,45,0.00,,---,0.00,VWS V14.01,2013-07-03 16:21:00,
2013-07-03 10:23:00,76.1,53.8,25.31,NNW,332,5.4,5.4,46,0.00,,---,0.00,VWS V14.01,2013-07-03 16:23:00,
2013-07-03 10:26:00,76.3,52.8,25.31,NW,323,3.1,3.1,44,0.00,,---,0.00,VWS V14.01,2013-07-03 16:26:00,
2013-07-03 10:29:00,76.3,52.8,25.31,NW,314,0.0,0.0,44,0.00,,---,0.00,VWS V14.01,2013-07-03 16:29:00,
2013-07-03 10:30:00,76.3,52.8,25.31,NW,314,2.2,2.2,44,0.00,,---,0.00,VWS V14.01,2013-07-03 16:30:00,
2013-07-03 10:31:00,76.5,53.6,25.31,NW,314,2.2,2.2,45,0.00,,---,0.00,VWS V14.01,2013-07-03 16:31:00,
2013-07-03 10:34:00,75.9,53.1,25.31,East,79,3.1,3.1,45,0.00,,---,0.00,VWS V14.01,2013-07-03 16:34:00,
2013-07-03 10:37:00,75.2,53.6,25.31,ENE,76,4.9,4.9,47,0.00,,---,0.00,VWS V14.01,2013-07-03 16:37:00,
2013-07-03 10:39:00,75.2,53.6,25.31,NE,48,4.5,4.9,47,0.00,,---,0.00,VWS V14.01,2013-07-03 16:39:00,
2013-07-03 10:40:00,75.2,53.6,25.31,NE,48,4.5,4.5,47,0.00,,---,0.00,VWS V14.01,2013-07-03 16:40:00,
2013-07-03 10:44:00,73.0,54.4,25.31,NE,48,4.5,4.5,52,0.00,,---,0.00,VWS V14.01,2013-07-03 16:44:00,
2013-07-03 10:45:00,73.0,54.4,25.31,NE,48,4.5,4.5,52,0.00,,---,0.00,VWS V14.01,2013-07-03 16:45:00,
2013-07-03 10:49:00,72.7,55.6,25.31,NE,48,4.5,4.5,55,0.00,,---,0.00,VWS V14.01,2013-07-03 16:49:00,
2013-07-03 10:50:00,72.7,55.6,25.31,NE,48,4.5,4.5,55,0.00,,---,0.00,VWS V14.01,2013-07-03 16:50:00,
2013-07-03 10:51:00,72.7,55.6,25.31,NE,48,4.5,4.5,55,0.00,,---,0.00,VWS V14.01,2013-07-03 16:51:00,
2013-07-03 10:54:00,73.2,57.6,25.31,NE,48,4.5,4.5,58,0.00,,---,0.00,VWS V14.01,2013-07-03 16:54:00,
2013-07-03 10:57:00,73.8,55.6,25.31,NE,48,4.5,4.5,53,0.00,,---,0.00,VWS V14.01,2013-07-03 16:57:00,
2013-07-03 10:58:00,73.8,55.6,25.31,WNW,284,2.7,4.5,53,0.00,,---,0.00,VWS V14.01,2013-07-03 16:58:00,
2013-07-03 11:00:00,74.7,55.3,25.31,North,353,3.6,5.4,51,0.00,,---,0.00,VWS V14.01,2013-07-03 17:00:00,
2013-07-03 11:01:00,74.7,55.3,25.31,North,353,3.6,3.6,51,0.00,,---,0.00,VWS V14.01,2013-07-03 17:01:00,
2013-07-03 11:03:00,75.0,55.1,25.31,West,272,3.6,3.6,50,0.00,,---,0.00,VWS V14.01,2013-07-03 17:03:00,
2013-07-03 11:06:00,74.8,54.4,25.31,West,272,3.6,3.6,49,0.00,,---,0.00,VWS V14.01,2013-07-03 17:06:00,
2013-07-03 11:08:00,74.8,55.0,25.31,NE,48,3.1,3.1,50,0.00,,---,0.00,VWS V14.01,2013-07-03 17:08:00,
2013-07-03 11:09:00,74.8,56.0,25.31,NE,48,3.1,3.1,52,0.00,,---,0.00,VWS V14.01,2013-07-03 17:09:00,
2013-07-03 11:10:00,74.8,56.0,25.31,NE,48,3.1,3.1,52,0.00,,---,0.00,VWS V14.01,2013-07-03 17:10:00,
2013-07-03 11:13:00,74.5,57.3,25.31,WNW,302,3.1,3.1,55,0.00,,---,0.00,VWS V14.01,2013-07-03 17:13:00,
2013-07-03 11:14:00,74.5,57.3,25.31,WNW,302,3.1,3.1,55,0.00,,---,0.00,VWS V14.01,2013-07-03 17:14:00,
2013-07-03 11:16:00,73.4,56.3,25.31,WNW,302,3.1,3.1,55,0.00,,---,0.00,VWS V14.01,2013-07-03 17:16:00,
2013-07-03 11:18:00,73.4,56.3,25.31,North,3,3.6,3.6,55,0.00,,---,0.00,VWS V14.01,2013-07-03 17:18:00,
2013-07-03 11:19:00,73.4,56.3,25.31,North,3,3.6,3.6,55,0.00,,---,0.00,VWS V14.01,2013-07-03 17:19:00,
2013-07-03 11:21:00,72.3,56.2,25.31,NW,326,5.8,5.8,57,0.00,,---,0.00,VWS V14.01,2013-07-03 17:21:00,
2013-07-03 11:24:00,72.0,57.8,25.31,NW,310,2.7,4.0,61,0.00,,---,0.00,VWS V14.01,2013-07-03 17:24:00,
2013-07-03 11:26:00,72.0,59.1,25.31,East,83,3.6,3.6,64,0.00,,---,0.00,VWS V14.01,2013-07-03 17:26:00,
2013-07-03 11:29:00,72.0,59.1,25.31,WSW,250,2.7,2.7,64,0.00,,---,0.00,VWS V14.01,2013-07-03 17:29:00,
2013-07-03 11:36:00,71.6,58.3,25.31,North,353,2.7,2.7,63,0.00,,---,0.00,VWS V14.01,2013-07-03 17:36:00,
2013-07-03 11:39:00,71.8,59.0,25.31,ENE,71,4.0,4.0,64,0.00,,---,0.00,VWS V14.01,2013-07-03 17:39:00,
2013-07-03 11:40:00,71.8,59.0,25.31,ENE,71,4.0,4.0,64,0.00,,---,0.00,VWS V14.01,2013-07-03 17:40:00,
2013-07-03 11:45:00,72.0,59.6,25.31,ENE,71,4.0,4.0,65,0.00,,---,0.00,VWS V14.01,2013-07-03 17:45:00,
2013-07-03 11:46:00,72.0,59.6,25.31,NNE,28,2.7,4.0,65,0.00,,---,0.00,VWS V14.01,2013-07-03 17:46:00,
2013-07-03 11:47:00,72.0,59.6,25.31,NE,44,3.1,3.1,65,0.00,,---,0.00,VWS V14.01,2013-07-03 17:47:00,
2013-07-03 11:52:00,72.5,59.2,25.31,ENE,64,3.6,3.6,63,0.00,,---,0.00,VWS V14.01,2013-07-03 17:52:00,
2013-07-03 11:54:00,72.3,59.0,25.31,East,98,4.9,4.9,63,0.00,,---,0.00,VWS V14.01,2013-07-03 17:54:00,
2013-07-03 11:55:00,72.3,59.9,25.31,NNE,25,2.2,4.9,65,0.00,,---,0.00,VWS V14.01,2013-07-03 17:55:00,
2013-07-03 11:59:00,72.5,60.5,25.31,WNW,288,2.7,2.7,66,0.00,,---,0.00,VWS V14.01,2013-07-03 17:59:00,
2013-07-03 12:03:00,73.0,59.3,25.31,NW,325,3.6,5.8,62,0.00,,---,0.00,VWS V14.01,2013-07-03 18:03:00,
2013-07-03 12:04:00,73.0,59.3,25.28,North,4,5.4,5.4,62,0.00,,---,0.00,VWS V14.01,2013-07-03 18:04:00,
2013-07-03 12:05:00,73.0,59.3,25.28,North,4,5.4,5.4,62,0.00,,---,0.00,VWS V14.01,2013-07-03 18:05:00,
2013-07-03 12:07:00,73.8,58.5,25.28,North,4,5.4,5.4,59,0.00,,---,0.00,VWS V14.01,2013-07-03 18:07:00,
2013-07-03 12:09:00,73.8,59.0,25.28,NE,55,2.7,2.7,60,0.00,,---,0.00,VWS V14.01,2013-07-03 18:09:00,
2013-07-03 12:11:00,73.9,57.8,25.28,NE,55,2.7,2.7,57,0.00,,---,0.00,VWS V14.01,2013-07-03 18:11:00,
2013-07-03 12:13:00,74.1,57.4,25.28,NE,55,2.7,2.7,56,0.00,,---,0.00,VWS V14.01,2013-07-03 18:13:00,
2013-07-03 12:16:00,74.3,57.6,25.28,NE,55,3.1,3.1,56,0.00,,---,0.00,VWS V14.01,2013-07-03 18:16:00,
2013-07-03 12:19:00,73.9,56.3,25.28,NE,55,3.1,3.1,54,0.00,,---,0.00,VWS V14.01,2013-07-03 18:19:00,
2013-07-03 12:20:00,73.9,56.3,25.28,NE,55,3.1,3.1,54,0.00,,---,0.00,VWS V14.01,2013-07-03 18:20:00,
2013-07-03 12:22:00,73.4,56.3,25.28,NNE,19,2.2,3.6,55,0.00,,---,0.00,VWS V14.01,2013-07-03 18:22:00,
2013-07-03 12:24:00,73.4,56.3,25.28,NE,35,3.1,3.1,55,0.00,,---,0.00,VWS V14.01,2013-07-03 18:24:00,
2013-07-03 12:25:00,73.4,56.3,25.28,NE,35,3.1,3.1,55,0.00,,---,0.00,VWS V14.01,2013-07-03 18:25:00,
2013-07-03 12:28:00,72.7,57.5,25.28,NNE,22,2.7,2.7,59,0.00,,---,0.00,VWS V14.01,2013-07-03 18:28:00,
2013-07-03 12:29:00,72.5,56.9,25.28,NNE,22,2.7,2.7,58,0.00,,---,0.00,VWS V14.01,2013-07-03 18:29:00,
2013-07-03 12:30:00,72.7,57.1,25.28,NW,321,3.1,3.1,58,0.00,,---,0.00,VWS V14.01,2013-07-03 18:30:00,
2013-07-03 12:34:00,72.9,57.2,25.28,NNW,338,2.7,2.7,58,0.00,,---,0.00,VWS V14.01,2013-07-03 18:34:00,
2013-07-03 12:35:00,72.9,57.2,25.28,NNW,338,2.7,2.7,58,0.00,,---,0.00,VWS V14.01,2013-07-03 18:35:00,
2013-07-03 12:36:00,73.2,57.1,25.28,NNW,338,2.7,2.7,57,0.00,,---,0.00,VWS V14.01,2013-07-03 18:36:00,
2013-07-03 12:39:00,73.8,56.6,25.28,NW,308,3.1,3.1,55,0.00,,---,0.00,VWS V14.01,2013-07-03 18:39:00,
2013-07-03 12:40:00,73.8,56.6,25.28,NW,323,2.7,3.1,55,0.00,,---,0.00,VWS V14.01,2013-07-03 18:40:00,
2013-07-03 12:41:00,73.8,56.6,25.28,NW,323,2.7,2.7,55,0.00,,---,0.00,VWS V14.01,2013-07-03 18:41:00,
2013-07-03 12:47:00,74.7,58.9,25.28,NE,54,2.7,2.7,58,0.00,,---,0.00,VWS V14.01,2013-07-03 18:47:00,
2013-07-03 12:48:00,74.8,58.6,25.28,NE,54,2.7,2.7,57,0.00,,---,0.00,VWS V14.01,2013-07-03 18:48:00,
2013-07-03 12:49:00,74.7,57.9,25.28,NE,54,2.7,2.7,56,0.00,,---,0.00,VWS V14.01,2013-07-03 18:49:00,
2013-07-03 12:50:00,74.7,57.9,25.28,NE,54,2.7,2.7,56,0.00,,---,0.00,VWS V14.01,2013-07-03 18:50:00,
2013-07-03 12:55:00,74.7,58.4,25.28,NNE,23,3.6,4.9,57,0.00,,---,0.00,VWS V14.01,2013-07-03 18:55:00,
2013-07-03 12:58:00,74.5,58.3,25.28,NW,324,0.0,3.6,57,0.00,,---,0.00,VWS V14.01,2013-07-03 18:58:00,
2013-07-03 13:01:00,74.3,58.1,25.28,NW,324,2.2,2.2,57,0.00,,---,0.00,VWS V14.01,2013-07-03 19:01:00,
2013-07-03 13:02:00,74.3,58.1,25.28,NW,324,2.2,2.2,57,0.00,,---,0.00,VWS V14.01,2013-07-03 19:02:00,
2013-07-03 13:03:00,74.3,57.6,25.25,NW,324,2.2,2.2,56,0.00,,---,0.00,VWS V14.01,2013-07-03 19:03:00,
2013-07-03 13:04:00,74.3,58.1,25.25,NW,324,2.2,2.2,57,0.00,,---,0.00,VWS V14.01,2013-07-03 19:04:00,
2013-07-03 13:12:00,73.8,59.0,25.25,ENE,63,3.6,3.6,60,0.00,,---,0.00,VWS V14.01,2013-07-03 19:12:00,
2013-07-03 13:15:00,73.6,57.9,25.25,NE,39,2.2,2.2,58,0.00,,---,0.00,VWS V14.01,2013-07-03 19:15:00,
2013-07-03 13:16:00,73.6,57.9,25.25,NE,39,2.2,2.2,58,0.00,,---,0.00,VWS V14.01,2013-07-03 19:16:00,
2013-07-03 13:17:00,73.2,59.0,25.25,NE,39,2.2,2.2,61,0.00,,---,0.00,VWS V14.01,2013-07-03 19:17:00,
2013-07-03 13:21:00,73.0,58.8,25.25,NNW,338,3.6,3.6,61,0.00,,---,0.00,VWS V14.01,2013-07-03 19:21:00,
2013-07-03 13:22:00,73.0,58.8,25.25,NNW,338,3.6,3.6,61,0.00,,---,0.00,VWS V14.01,2013-07-03 19:22:00,
2013-07-03 13:23:00,73.2,59.0,25.25,NNW,338,3.6,3.6,61,0.00,,---,0.00,VWS V14.01,2013-07-03 19:23:00,
2013-07-03 13:29:00,73.9,59.2,25.25,NNE,12,0.0,0.0,60,0.00,,---,0.00,VWS V14.01,2013-07-03 19:29:00,
2013-07-03 13:30:00,73.9,59.2,25.25,ENE,69,4.0,4.0,60,0.00,,---,0.00,VWS V14.01,2013-07-03 19:30:00,
2013-07-03 13:31:00,74.3,57.6,25.25,ENE,69,4.0,4.0,56,0.00,,---,0.00,VWS V14.01,2013-07-03 19:31:00,
2013-07-03 13:32:00,74.3,57.6,25.25,NE,47,2.7,4.0,56,0.00,,---,0.00,VWS V14.01,2013-07-03 19:32:00,
2013-07-03 13:36:00,74.7,57.9,25.25,NW,323,3.1,3.1,56,0.00,,---,0.00,VWS V14.01,2013-07-03 19:36:00,
2013-07-03 13:37:00,74.8,57.6,25.25,NW,323,3.1,3.1,55,0.00,,---,0.00,VWS V14.01,2013-07-03 19:37:00,
2013-07-03 13:38:00,74.8,57.1,25.25,NW,323,3.1,3.1,54,0.00,,---,0.00,VWS V14.01,2013-07-03 19:38:00,
2013-07-03 13:40:00,74.8,57.1,25.25,NW,323,3.1,3.1,54,0.00,,---,0.00,VWS V14.01,2013-07-03 19:40:00,
2013-07-03 13:44:00,74.7,56.9,25.25,NNW,330,4.0,4.0,54,0.00,,---,0.00,VWS V14.01,2013-07-03 19:44:00,
2013-07-03 13:46:00,74.3,58.1,25.25,East,92,3.6,3.6,57,0.00,,---,0.00,VWS V14.01,2013-07-03 19:46:00,
2013-07-03 13:49:00,73.9,57.8,25.25,NE,39,3.1,3.1,57,0.00,,---,0.00,VWS V14.01,2013-07-03 19:49:00,
2013-07-03 13:51:00,73.8,57.6,25.25,NE,39,3.1,3.1,57,0.00,,---,0.00,VWS V14.01,2013-07-03 19:51:00,
2013-07-03 13:52:00,73.6,57.4,25.25,NE,39,3.1,3.1,57,0.00,,---,0.00,VWS V14.01,2013-07-03 19:52:00,
2013-07-03 13:53:00,73.6,57.4,25.25,NE,39,3.1,3.1,57,0.00,,---,0.00,VWS V14.01,2013-07-03 19:53:00,
2013-07-03 13:56:00,73.4,58.2,25.25,NE,39,3.1,3.1,59,0.00,,---,0.00,VWS V14.01,2013-07-03 19:56:00,
2013-07-03 13:58:00,73.2,57.6,25.25,NE,46,2.7,3.1,58,0.00,,---,0.00,VWS V14.01,2013-07-03 19:58:00,
2013-07-03 14:00:00,72.7,57.5,25.25,NE,46,2.7,2.7,59,0.00,,---,0.00,VWS V14.01,2013-07-03 20:00:00,
2013-07-03 14:01:00,72.7,57.5,25.25,NNW,329,0.0,2.7,59,0.00,,---,0.00,VWS V14.01,2013-07-03 20:01:00,
2013-07-03 14:03:00,72.3,57.7,25.25,North,6,0.0,0.0,60,0.00,,---,0.00,VWS V14.01,2013-07-03 20:03:00,
2013-07-03 14:06:00,72.1,58.0,25.25,North,6,0.0,0.0,61,0.00,,---,0.00,VWS V14.01,2013-07-03 20:06:00,
2013-07-03 14:08:00,72.0,58.2,25.25,North,6,0.0,0.0,62,0.00,,---,0.00,VWS V14.01,2013-07-03 20:08:00,
2013-07-03 14:10:00,72.0,58.2,25.25,North,6,0.0,0.0,62,0.00,,---,0.00,VWS V14.01,2013-07-03 20:10:00,
2013-07-03 14:13:00,72.0,58.2,25.25,North,6,0.0,0.0,62,0.00,,---,0.00,VWS V14.01,2013-07-03 20:13:00,
2013-07-03 14:14:00,72.0,58.2,25.25,NNE,13,2.7,2.7,62,0.00,,---,0.00,VWS V14.01,2013-07-03 20:14:00,
2013-07-03 14:15:00,72.0,58.2,25.25,NNE,13,2.7,2.7,62,0.00,,---,0.00,VWS V14.01,2013-07-03 20:15:00,
2013-07-03 14:16:00,72.3,58.1,25.25,NW,317,3.1,3.1,61,0.00,,---,0.00,VWS V14.01,2013-07-03 20:16:00,
2013-07-03 14:20:00,72.9,58.6,25.25,NW,318,0.0,3.1,61,0.00,,---,0.00,VWS V14.01,2013-07-03 20:20:00,
2013-07-03 14:21:00,72.9,58.6,25.25,NW,318,0.0,0.0,61,0.00,,---,0.00,VWS V14.01,2013-07-03 20:21:00,
2013-07-03 14:24:00,73.2,58.0,25.25,NW,318,0.0,0.0,59,0.00,,---,0.00,VWS V14.01,2013-07-03 20:24:00,
2013-07-03 14:27:00,73.9,57.3,25.25,NW,318,0.0,0.0,56,0.00,,---,0.00,VWS V14.01,2013-07-03 20:27:00,
2013-07-03 14:28:00,73.9,57.3,25.25,NW,318,0.0,0.0,56,0.00,,---,0.00,VWS V14.01,2013-07-03 20:28:00,
2013-07-03 14:29:00,73.9,57.3,25.25,NW,318,0.0,0.0,56,0.00,,---,0.00,VWS V14.01,2013-07-03 20:29:00,
2013-07-03 14:31:00,74.1,56.9,25.25,NE,52,0.0,2.2,55,0.00,,---,0.00,VWS V14.01,2013-07-03 20:31:00,
2013-07-03 14:36:00,74.5,55.7,25.22,NW,316,2.2,4.0,52,0.00,,---,0.00,VWS V14.01,2013-07-03 20:36:00,
2013-07-03 14:37:00,74.7,55.9,25.22,NW,316,2.2,2.2,52,0.00,,---,0.00,VWS V14.01,2013-07-03 20:37:00,
2013-07-03 14:39:00,74.8,56.0,25.22,NW,316,2.2,2.2,52,0.00,,---,0.00,VWS V14.01,2013-07-03 20:39:00,
2013-07-03 14:41:00,74.8,56.0,25.22,NW,316,0.0,2.2,52,0.00,,---,0.00,VWS V14.01,2013-07-03 20:41:00,
2013-07-03 14:42:00,75.0,56.2,25.22,NW,316,0.0,0.0,52,0.00,,---,0.00,VWS V14.01,2013-07-03 20:42:00,
2013-07-03 14:43:00,75.2,56.4,25.22,NW,316,0.0,0.0,52,0.00,,---,0.00,VWS V14.01,2013-07-03 20:43:00,
2013-07-03 14:44:00,75.2,56.4,25.22,NW,316,0.0,0.0,52,0.00,,---,0.00,VWS V14.01,2013-07-03 20:44:00,
2013-07-03 14:48:00,75.2,55.3,25.22,NE,54,2.2,3.1,50,0.00,,---,0.00,VWS V14.01,2013-07-03 20:48:00,
2013-07-03 14:51:00,75.2,55.3,25.22,NE,54,2.2,2.2,50,0.00,,---,0.00,VWS V14.01,2013-07-03 20:51:00,
2013-07-03 14:52:00,75.2,55.3,25.22,NE,54,2.2,2.2,50,0.00,,---,0.00,VWS V14.01,2013-07-03 20:52:00,
2013-07-03 14:57:00,75.0,54.6,25.22,ENE,63,3.1,3.1,49,0.00,,---,0.00,VWS V14.01,2013-07-03 20:57:00,
2013-07-03 14:58:00,74.7,55.9,25.22,ENE,63,3.1,3.1,52,0.00,,---,0.00,VWS V14.01,2013-07-03 20:58:00,
2013-07-03 15:01:00,74.5,54.6,25.22,ENE,63,3.1,3.1,50,0.00,,---,0.00,VWS V14.01,2013-07-03 21:01:00,
2013-07-03 15:04:00,74.3,54.5,25.22,ENE,63,3.1,3.1,50,0.00,,---,0.00,VWS V14.01,2013-07-03 21:04:00,
2013-07-03 15:06:00,74.1,54.3,25.22,ESE,110,2.2,3.1,50,0.00,,---,0.00,VWS V14.01,2013-07-03 21:06:00,
2013-07-03 15:09:00,73.9,53.6,25.22,ENE,78,4.0,4.0,49,0.00,,---,0.00,VWS V14.01,2013-07-03 21:09:00,
2013-07-03 15:11:00,73.8,54.0,25.22,ENE,78,4.0,4.0,50,0.00,,---,0.00,VWS V14.01,2013-07-03 21:11:00,
2013-07-03 15:12:00,73.8,54.0,25.22,ENE,78,4.0,4.0,50,0.00,,---,0.00,VWS V14.01,2013-07-03 21:12:00,
2013-07-03 15:13:00,73.8,54.0,25.22,ENE,78,4.0,4.0,50,0.00,,---,0.00,VWS V14.01,2013-07-03 21:13:00,
2013-07-03 15:16:00,73.6,54.9,25.22,NNE,18,2.7,2.7,52,0.00,,---,0.00,VWS V14.01,2013-07-03 21:16:00,
2013-07-03 15:17:00,73.6,54.9,25.22,NNE,18,2.7,2.7,52,0.00,,---,0.00,VWS V14.01,2013-07-03 21:17:00,
2013-07-03 15:19:00,73.6,55.4,25.22,NNE,18,2.7,2.7,53,0.00,,---,0.00,VWS V14.01,2013-07-03 21:19:00,
2013-07-03 15:20:00,73.6,55.4,25.22,NNE,18,2.7,2.7,53,0.00,,---,0.00,VWS V14.01,2013-07-03 21:20:00,
2013-07-03 15:22:00,73.6,54.9,25.22,NNE,18,2.7,2.7,52,0.00,,---,0.00,VWS V14.01,2013-07-03 21:22:00,
2013-07-03 15:25:00,73.6,55.9,25.22,NW,309,2.2,2.2,54,0.00,,---,0.00,VWS V14.01,2013-07-03 21:25:00,
2013-07-03 15:28:00,73.6,55.4,25.22,ESE,119,3.1,3.1,53,0.00,,---,0.00,VWS V14.01,2013-07-03 21:28:00,
2013-07-03 15:31:00,73.4,54.7,25.22,ESE,119,3.1,3.1,52,0.00,,---,0.00,VWS V14.01,2013-07-03 21:31:00,
2013-07-03 15:33:00,73.0,54.4,25.22,ENE,58,3.1,3.1,52,0.00,,---,0.00,VWS V14.01,2013-07-03 21:33:00,
2013-07-03 15:34:00,73.0,54.9,25.22,ENE,58,3.1,3.1,53,0.00,,---,0.00,VWS V14.01,2013-07-03 21:34:00,
2013-07-03 15:35:00,73.0,54.9,25.22,ENE,58,3.1,3.1,53,0.00,,---,0.00,VWS V14.01,2013-07-03 21:35:00,
2013-07-03 15:39:00,73.0,54.9,25.22,NE,56,0.0,0.0,53,0.00,,---,0.00,VWS V14.01,2013-07-03 21:39:00,
2013-07-03 15:42:00,72.9,56.3,25.22,NE,56,0.0,0.0,56,0.00,,---,0.00,VWS V14.01,2013-07-03 21:42:00,
2013-07-03 15:43:00,72.9,56.3,25.22,NE,56,0.0,0.0,56,0.00,,---,0.00,VWS V14.01,2013-07-03 21:43:00,
2013-07-03 15:45:00,72.7,57.5,25.22,NE,56,0.0,0.0,59,0.00,,---,0.00,VWS V14.01,2013-07-03 21:45:00,
2013-07-03 15:48:00,72.5,57.8,25.22,NE,56,0.0,0.0,60,0.00,,---,0.00,VWS V14.01,2013-07-03 21:48:00,
2013-07-03 15:53:00,72.1,56.1,25.22,NE,56,0.0,0.0,57,0.00,,---,0.00,VWS V14.01,2013-07-03 21:53:00,
2013-07-03 15:56:00,72.1,57.5,25.22,NE,34,4.0,4.0,60,0.00,,---,0.00,VWS V14.01,2013-07-03 21:56:00,
2013-07-03 15:58:00,72.1,57.5,25.22,NE,34,4.0,4.0,60,0.00,,---,0.00,VWS V14.01,2013-07-03 21:58:00,
2013-07-03 16:04:00,72.1,58.0,25.22,NE,34,2.7,2.7,61,0.00,,---,0.00,VWS V14.01,2013-07-03 22:04:00,
2013-07-03 16:08:00,72.3,58.1,25.22,NE,34,2.7,2.7,61,0.00,,---,0.00,VWS V14.01,2013-07-03 22:08:00,
2013-07-03 16:09:00,72.3,58.1,25.22,NE,34,2.7,2.7,61,0.00,,---,0.00,VWS V14.01,2013-07-03 22:09:00,
2013-07-03 16:10:00,72.3,58.1,25.22,NE,37,2.7,2.7,61,0.00,,---,0.00,VWS V14.01,2013-07-03 22:10:00,
2013-07-03 16:12:00,72.3,56.7,25.22,NE,37,2.2,2.7,58,0.00,,---,0.00,VWS V14.01,2013-07-03 22:12:00,
2013-07-03 16:14:00,72.3,56.2,25.22,NE,37,3.1,3.1,57,0.00,,---,0.00,VWS V14.01,2013-07-03 22:14:00,
2013-07-03 16:15:00,72.3,56.2,25.22,NE,37,3.1,3.1,57,0.00,,---,0.00,VWS V14.01,2013-07-03 22:15:00,
2013-07-03 16:18:00,72.3,55.8,25.22,NE,37,3.1,3.1,56,0.00,,---,0.00,VWS V14.01,2013-07-03 22:18:00,
2013-07-03 16:19:00,72.3,55.8,25.22,NE,37,3.1,3.1,56,0.00,,---,0.00,VWS V14.01,2013-07-03 22:19:00,
2013-07-03 16:20:00,72.3,56.2,25.22,NE,37,3.1,3.1,57,0.00,,---,0.00,VWS V14.01,2013-07-03 22:20:00,
2013-07-03 16:23:00,72.1,57.0,25.22,NE,50,2.7,2.7,59,0.00,,---,0.00,VWS V14.01,2013-07-03 22:23:00,
2013-07-03 16:26:00,72.0,58.2,25.22,East,88,0.0,0.0,62,0.00,,---,0.00,VWS V14.01,2013-07-03 22:26:00,
2013-07-03 16:27:00,72.0,58.2,25.22,East,88,0.0,0.0,62,0.00,,---,0.00,VWS V14.01,2013-07-03 22:27:00,
2013-07-03 16:30:00,71.8,59.4,25.22,NE,37,0.0,0.0,65,0.00,,---,0.00,VWS V14.01,2013-07-03 22:30:00,
2013-07-03 16:31:00,71.6,59.2,25.22,NE,37,0.0,0.0,65,0.00,,---,0.00,VWS V14.01,2013-07-03 22:31:00,
2013-07-03 16:34:00,71.6,59.2,25.22,NE,37,0.0,0.0,65,0.00,,---,0.00,VWS V14.01,2013-07-03 22:34:00,
2013-07-03 16:37:00,71.4,59.0,25.22,NE,37,0.0,0.0,65,0.00,,---,0.00,VWS V14.01,2013-07-03 22:37:00,
2013-07-03 16:42:00,71.4,58.6,25.22,NW,324,0.0,0.0,64,0.00,,---,0.00,VWS V14.01,2013-07-03 22:42:00,
2013-07-03 16:43:00,71.4,58.6,25.22,NW,324,0.0,0.0,64,0.00,,---,0.00,VWS V14.01,2013-07-03 22:43:00,
2013-07-03 16:46:00,71.4,58.6,25.22,NW,324,0.0,0.0,64,0.00,,---,0.00,VWS V14.01,2013-07-03 22:46:00,
2013-07-03 16:50:00,71.4,59.0,25.22,NW,324,0.0,0.0,65,0.00,,---,0.00,VWS V14.01,2013-07-03 22:50:00,
2013-07-03 16:51:00,71.4,59.0,25.22,NW,324,0.0,0.0,65,0.00,,---,0.00,VWS V14.01,2013-07-03 22:51:00,
2013-07-03 16:52:00,71.4,59.5,25.22,NW,324,0.0,0.0,66,0.00,,---,0.00,VWS V14.01,2013-07-03 22:52:00,
2013-07-03 16:57:00,71.2,59.7,25.22,NW,324,0.0,0.0,67,0.00,,---,0.00,VWS V14.01,2013-07-03 22:57:00,
2013-07-03 16:58:00,71.2,59.7,25.22,NW,324,0.0,0.0,67,0.00,,---,0.00,VWS V14.01,2013-07-03 22:58:00,
2013-07-03 17:01:00,71.2,60.2,25.22,NW,324,0.0,0.0,68,0.00,,---,0.00,VWS V14.01,2013-07-03 23:01:00,
2013-07-03 17:02:00,71.1,60.0,25.22,NW,324,0.0,0.0,68,0.00,,---,0.00,VWS V14.01,2013-07-03 23:02:00,
2013-07-03 17:04:00,71.1,60.0,25.22,NW,324,0.0,0.0,68,0.00,,---,0.00,VWS V14.01,2013-07-03 23:04:00,
2013-07-03 17:08:00,70.7,60.5,25.22,NW,324,0.0,0.0,70,0.00,,---,0.00,VWS V14.01,2013-07-03 23:08:00,
2013-07-03 17:11:00,70.7,60.8,25.22,NW,324,0.0,0.0,71,0.00,,---,0.00,VWS V14.01,2013-07-03 23:11:00,
2013-07-03 17:12:00,70.7,60.8,25.22,NW,324,0.0,0.0,71,0.00,,---,0.00,VWS V14.01,2013-07-03 23:12:00,
2013-07-03 17:16:00,70.5,60.7,25.22,NW,324,0.0,0.0,71,0.00,,---,0.00,VWS V14.01,2013-07-03 23:16:00,
2013-07-03 17:19:00,70.5,60.7,25.22,NW,324,0.0,0.0,71,0.00,,---,0.00,VWS V14.01,2013-07-03 23:19:00,
2013-07-03 17:20:00,70.3,60.9,25.22,NW,324,0.0,0.0,72,0.00,,---,0.00,VWS V14.01,2013-07-03 23:20:00,
2013-07-03 17:22:00,70.3,60.9,25.22,NW,324,0.0,0.0,72,0.00,,---,0.00,VWS V14.01,2013-07-03 23:22:00,
2013-07-03 17:24:00,70.3,60.9,25.22,NW,324,0.0,0.0,72,0.00,,---,0.00,VWS V14.01,2013-07-03 23:24:00,
2013-07-03 17:26:00,70.2,61.5,25.22,NW,324,0.0,0.0,74,0.00,,---,0.00,VWS V14.01,2013-07-03 23:26:00,
2013-07-03 17:29:00,70.0,61.7,25.22,NW,324,0.0,0.0,75,0.00,,---,0.00,VWS V14.01,2013-07-03 23:29:00,
2013-07-03 17:30:00,70.0,61.7,25.22,NW,324,0.0,0.0,75,0.00,,---,0.00,VWS V14.01,2013-07-03 23:30:00,
2013-07-03 17:36:00,69.6,62.5,25.22,NE,41,0.0,0.0,78,0.00,,---,0.00,VWS V14.01,2013-07-03 23:36:00,
2013-07-03 17:38:00,69.6,62.5,25.22,NE,41,2.2,2.2,78,0.00,,---,0.00,VWS V14.01,2013-07-03 23:38:00,
2013-07-03 17:41:00,69.4,63.0,25.22,NE,41,0.0,0.0,80,0.00,,---,0.00,VWS V14.01,2013-07-03 23:41:00,
2013-07-03 17:43:00,69.4,63.4,25.22,NE,41,0.0,0.0,81,0.00,,---,0.00,VWS V14.01,2013-07-03 23:43:00,
2013-07-03 17:44:00,69.3,63.2,25.22,NE,41,0.0,0.0,81,0.00,,---,0.00,VWS V14.01,2013-07-03 23:44:00,
2013-07-03 17:47:00,69.1,63.0,25.22,NE,41,0.0,0.0,81,0.00,,---,0.00,VWS V14.01,2013-07-03 23:47:00,
2013-07-03 17:50:00,69.1,63.4,25.22,NE,41,0.0,0.0,82,0.00,,---,0.00,VWS V14.01,2013-07-03 23:50:00,
2013-07-03 17:51:00,69.1,63.4,25.22,NE,41,0.0,0.0,82,0.00,,---,0.00,VWS V14.01,2013-07-03 23:51:00,
2013-07-03 17:52:00,69.1,63.7,25.22,NE,41,0.0,0.0,83,0.00,,---,0.00,VWS V14.01,2013-07-03 23:52:00,
2013-07-03 17:53:00,69.1,63.7,25.22,NE,41,0.0,0.0,83,0.00,,---,0.00,VWS V14.01,2013-07-03 23:53:00,
2013-07-03 17:55:00,69.1,65.4,25.22,NE,41,2.2,2.2,88,0.00,,---,0.00,VWS V14.01,2013-07-03 23:55:00,
2013-07-03 17:59:00,68.9,65.2,25.22,NE,41,2.2,2.2,88,0.00,,---,0.00,VWS V14.01,2013-07-03 23:59:00,
2013-07-03 18:00:00,68.9,65.2,25.22,NE,41,2.2,2.2,88,0.00,,---,0.00,VWS V14.01,2013-07-04 00:00:00,
2013-07-03 18:04:00,68.7,65.3,25.22,NE,41,2.7,3.1,89,0.00,,---,0.00,VWS V14.01,2013-07-04 00:04:00,
2013-07-03 18:06:00,68.5,65.5,25.22,NE,41,0.0,2.7,90,0.00,,---,0.00,VWS V14.01,2013-07-04 00:06:00,
2013-07-03 18:07:00,68.5,65.5,25.25,NE,41,0.0,0.0,90,0.00,,---,0.00,VWS V14.01,2013-07-04 00:07:00,
2013-07-03 18:11:00,68.2,65.1,25.25,NE,41,0.0,0.0,90,0.00,,---,0.00,VWS V14.01,2013-07-04 00:11:00,
2013-07-03 18:16:00,67.8,65.4,25.25,NE,41,0.0,0.0,92,0.00,,---,0.00,VWS V14.01,2013-07-04 00:16:00,
2013-07-03 18:17:00,67.8,65.4,25.25,NE,42,0.0,0.0,92,0.00,,---,0.00,VWS V14.01,2013-07-04 00:17:00,
2013-07-03 18:22:00,67.6,65.6,25.25,NE,55,2.7,2.7,93,0.00,,---,0.00,VWS V14.01,2013-07-04 00:22:00,
2013-07-03 18:23:00,67.6,65.6,25.25,NE,55,2.7,2.7,93,0.00,,---,0.00,VWS V14.01,2013-07-04 00:23:00,
2013-07-03 18:27:00,67.3,65.2,25.25,East,95,3.1,3.1,93,0.00,,---,0.00,VWS V14.01,2013-07-04 00:27:00,
2013-07-03 18:32:00,67.1,65.0,25.25,East,93,0.0,0.0,93,0.00,,---,0.00,VWS V14.01,2013-07-04 00:32:00,
2013-07-03 18:34:00,67.1,65.0,25.25,NNW,336,0.0,0.0,93,0.00,,---,0.00,VWS V14.01,2013-07-04 00:34:00,
2013-07-03 18:35:00,66.9,64.8,25.25,NNW,336,0.0,0.0,93,0.00,,---,0.00,VWS V14.01,2013-07-04 00:35:00,
2013-07-03 18:37:00,66.9,64.8,25.25,NE,42,2.2,2.2,93,0.00,,---,0.00,VWS V14.01,2013-07-04 00:37:00,
2013-07-03 18:40:00,66.7,65.0,25.25,NE,42,0.0,0.0,94,0.00,,---,0.00,VWS V14.01,2013-07-04 00:40:00,
2013-07-03 18:43:00,66.7,65.0,25.25,NE,42,0.0,0.0,94,0.00,,---,0.00,VWS V14.01,2013-07-04 00:43:00,
2013-07-03 18:46:00,66.6,64.8,25.25,NE,42,0.0,0.0,94,0.00,,---,0.00,VWS V14.01,2013-07-04 00:46:00,
2013-07-03 18:51:00,66.6,64.8,25.25,NE,42,0.0,0.0,94,0.00,,---,0.00,VWS V14.01,2013-07-04 00:51:00,
2013-07-03 18:56:00,66.6,64.8,25.25,NE,42,0.0,0.0,94,0.00,,---,0.00,VWS V14.01,2013-07-04 00:56:00,
2013-07-03 18:57:00,66.6,64.8,25.25,NE,42,0.0,0.0,94,0.00,,---,0.00,VWS V14.01,2013-07-04 00:57:00,
2013-07-03 18:58:00,66.6,64.8,25.25,NE,42,0.0,0.0,94,0.00,,---,0.00,VWS V14.01,2013-07-04 00:58:00,
2013-07-03 19:03:00,66.4,64.6,25.25,NE,42,0.0,0.0,94,0.00,,---,0.00,VWS V14.01,2013-07-04 01:03:00,
2013-07-03 19:04:00,66.4,64.6,25.25,NE,42,0.0,0.0,94,0.00,,---,0.00,VWS V14.01,2013-07-04 01:04:00,
2013-07-03 19:07:00,66.4,64.6,25.28,NE,42,0.0,0.0,94,0.00,,---,0.00,VWS V14.01,2013-07-04 01:07:00,
2013-07-03 19:08:00,66.4,64.6,25.28,NE,42,0.0,0.0,94,0.00,,---,0.00,VWS V14.01,2013-07-04 01:08:00,
2013-07-03 19:10:00,66.2,64.4,25.28,NE,42,0.0,0.0,94,0.00,,---,0.00,VWS V14.01,2013-07-04 01:10:00,
2013-07-03 19:12:00,66.2,64.4,25.28,NE,42,0.0,0.0,94,0.00,,---,0.00,VWS V14.01,2013-07-04 01:12:00,
2013-07-03 19:16:00,66.0,64.2,25.28,NE,42,0.0,0.0,94,0.00,,---,0.00,VWS V14.01,2013-07-04 01:16:00,
2013-07-03 19:18:00,66.0,64.2,25.28,NE,42,0.0,0.0,94,0.00,,---,0.00,VWS V14.01,2013-07-04 01:18:00,
2013-07-03 19:19:00,66.0,64.2,25.28,NE,42,0.0,0.0,94,0.00,,---,0.00,VWS V14.01,2013-07-04 01:19:00,
2013-07-03 19:22:00,65.8,64.1,25.28,NE,42,0.0,0.0,94,0.00,,---,0.00,VWS V14.01,2013-07-04 01:22:00,
2013-07-03 19:24:00,65.8,64.1,25.28,NE,42,0.0,0.0,94,0.00,,---,0.00,VWS V14.01,2013-07-04 01:24:00,
2013-07-03 19:26:00,65.8,64.4,25.28,NE,42,0.0,0.0,95,0.00,,---,0.00,VWS V14.01,2013-07-04 01:26:00,
2013-07-03 19:27:00,65.8,64.4,25.28,NE,42,0.0,0.0,95,0.00,,---,0.00,VWS V14.01,2013-07-04 01:27:00,
2013-07-03 19:28:00,65.8,64.4,25.28,NE,42,0.0,0.0,95,0.00,,---,0.00,VWS V14.01,2013-07-04 01:28:00,
2013-07-03 19:29:00,66.0,64.6,25.28,NE,42,0.0,0.0,95,0.00,,---,0.00,VWS V14.01,2013-07-04 01:29:00,
2013-07-03 19:31:00,66.0,64.6,25.28,NE,42,0.0,0.0,95,0.00,,---,0.00,VWS V14.01,2013-07-04 01:31:00,
2013-07-03 19:36:00,66.0,64.6,25.28,NE,42,0.0,0.0,95,0.00,,---,0.00,VWS V14.01,2013-07-04 01:36:00,
2013-07-03 19:37:00,66.0,64.6,25.28,NE,42,0.0,0.0,95,0.00,,---,0.00,VWS V14.01,2013-07-04 01:37:00,
2013-07-03 19:42:00,65.8,64.4,25.28,NE,42,0.0,0.0,95,0.00,,---,0.00,VWS V14.01,2013-07-04 01:42:00,
2013-07-03 19:43:00,65.8,64.4,25.28,NE,42,0.0,0.0,95,0.00,,---,0.00,VWS V14.01,2013-07-04 01:43:00,
2013-07-03 19:44:00,65.8,64.4,25.28,NE,42,0.0,0.0,95,0.00,,---,0.00,VWS V14.01,2013-07-04 01:44:00,
2013-07-03 19:47:00,65.8,64.4,25.28,NE,42,0.0,0.0,95,0.00,,---,0.00,VWS V14.01,2013-07-04 01:47:00,
2013-07-03 19:49:00,65.8,64.4,25.28,NE,42,0.0,0.0,95,0.00,,---,0.00,VWS V14.01,2013-07-04 01:49:00,
2013-07-03 19:50:00,65.8,64.4,25.28,NE,42,0.0,0.0,95,0.00,,---,0.00,VWS V14.01,2013-07-04 01:50:00,
2013-07-03 19:51:00,65.8,64.4,25.28,NE,42,0.0,0.0,95,0.00,,---,0.00,VWS V14.01,2013-07-04 01:51:00,
2013-07-03 19:54:00,65.8,64.4,25.28,NE,42,0.0,0.0,95,0.00,,---,0.00,VWS V14.01,2013-07-04 01:54:00,
2013-07-03 19:55:00,65.8,64.4,25.28,NE,42,0.0,0.0,95,0.00,,---,0.00,VWS V14.01,2013-07-04 01:55:00,
2013-07-03 19:57:00,65.8,64.4,25.28,NE,42,0.0,0.0,95,0.00,,---,0.00,VWS V14.01,2013-07-04 01:57:00,
2013-07-03 20:01:00,65.8,64.4,25.28,NE,42,0.0,0.0,95,0.00,,---,0.00,VWS V14.01,2013-07-04 02:01:00,
2013-07-03 20:04:00,65.7,64.2,25.28,NE,42,0.0,0.0,95,0.00,,---,0.00,VWS V14.01,2013-07-04 02:04:00,
2013-07-03 20:07:00,65.5,64.0,25.28,NE,42,0.0,0.0,95,0.00,,---,0.00,VWS V14.01,2013-07-04 02:07:00,
2013-07-03 20:08:00,65.5,64.0,25.28,NE,42,0.0,0.0,95,0.00,,---,0.00,VWS V14.01,2013-07-04 02:08:00,
2013-07-03 20:11:00,65.5,64.0,25.28,NE,42,0.0,0.0,95,0.00,,---,0.00,VWS V14.01,2013-07-04 02:11:00,
2013-07-03 20:12:00,65.5,64.0,25.28,NE,42,0.0,0.0,95,0.00,,---,0.00,VWS V14.01,2013-07-04 02:12:00,
2013-07-03 20:16:00,65.5,64.0,25.28,NE,42,0.0,0.0,95,0.00,,---,0.00,VWS V14.01,2013-07-04 02:16:00,
2013-07-03 20:18:00,65.5,64.0,25.28,NE,42,0.0,0.0,95,0.00,,---,0.00,VWS V14.01,2013-07-04 02:18:00,
2013-07-03 20:19:00,65.5,64.3,25.28,NE,42,0.0,0.0,96,0.00,,---,0.00,VWS V14.01,2013-07-04 02:19:00,
2013-07-03 20:23:00,65.5,64.3,25.28,NE,42,0.0,0.0,96,0.00,,---,0.00,VWS V14.01,2013-07-04 02:23:00,
2013-07-03 20:25:00,65.5,64.3,25.28,NE,42,0.0,0.0,96,0.00,,---,0.00,VWS V14.01,2013-07-04 02:25:00,
2013-07-03 20:26:00,65.5,64.3,25.28,NE,42,0.0,0.0,96,0.00,,---,0.00,VWS V14.01,2013-07-04 02:26:00,
2013-07-03 20:28:00,65.5,64.3,25.28,NE,42,0.0,0.0,96,0.00,,---,0.00,VWS V14.01,2013-07-04 02:28:00,
2013-07-03 20:29:00,65.3,63.8,25.28,NE,42,0.0,0.0,95,0.00,,---,0.00,VWS V14.01,2013-07-04 02:29:00,
2013-07-03 20:33:00,65.1,63.7,25.28,NE,42,0.0,0.0,95,0.00,,---,0.00,VWS V14.01,2013-07-04 02:33:00,
2013-07-03 20:34:00,65.1,63.7,25.28,NE,42,0.0,0.0,95,0.00,,---,0.00,VWS V14.01,2013-07-04 02:34:00,
2013-07-03 20:39:00,65.1,63.7,25.28,NE,42,0.0,0.0,95,0.00,,---,0.00,VWS V14.01,2013-07-04 02:39:00,
2013-07-03 20:41:00,65.1,63.7,25.28,NE,42,0.0,0.0,95,0.00,,---,0.00,VWS V14.01,2013-07-04 02:41:00,
2013-07-03 20:44:00,65.1,63.7,25.28,NE,42,0.0,0.0,95,0.00,,---,0.00,VWS V14.01,2013-07-04 02:44:00,
2013-07-03 20:45:00,65.1,63.7,25.28,NE,42,0.0,0.0,95,0.00,,---,0.00,VWS V14.01,2013-07-04 02:45:00,
2013-07-03 20:46:00,65.1,63.7,25.28,NE,42,0.0,0.0,95,0.00,,---,0.00,VWS V14.01,2013-07-04 02:46:00,
2013-07-03 20:50:00,65.1,64.0,25.28,NE,42,0.0,0.0,96,0.00,,---,0.00,VWS V14.01,2013-07-04 02:50:00,
2013-07-03 20:52:00,65.3,64.1,25.28,NE,42,0.0,0.0,96,0.00,,---,0.00,VWS V14.01,2013-07-04 02:52:00,
2013-07-03 20:53:00,65.5,64.3,25.28,NE,42,0.0,0.0,96,0.00,,---,0.00,VWS V14.01,2013-07-04 02:53:00,
2013-07-03 20:58:00,65.7,64.5,25.28,NE,42,0.0,0.0,96,0.00,,---,0.00,VWS V14.01,2013-07-04 02:58:00,
2013-07-03 20:59:00,65.7,64.5,25.28,NE,42,0.0,0.0,96,0.00,,---,0.00,VWS V14.01,2013-07-04 02:59:00,
2013-07-03 21:02:00,65.7,64.8,25.28,NE,42,0.0,0.0,97,0.00,,---,0.00,VWS V14.01,2013-07-04 03:02:00,
2013-07-03 21:06:00,65.8,65.0,25.31,NE,42,0.0,0.0,97,0.00,,---,0.00,VWS V14.01,2013-07-04 03:06:00,
2013-07-03 21:07:00,65.8,65.0,25.31,NE,42,0.0,0.0,97,0.00,,---,0.00,VWS V14.01,2013-07-04 03:07:00,
2013-07-03 21:10:00,65.8,65.0,25.31,NE,42,0.0,2.2,97,0.00,,---,0.00,VWS V14.01,2013-07-04 03:10:00,
2013-07-03 21:12:00,65.8,65.3,25.31,NE,42,0.0,0.0,98,0.00,,---,0.00,VWS V14.01,2013-07-04 03:12:00,
2013-07-03 21:15:00,65.8,65.3,25.31,NE,42,0.0,0.0,98,0.00,,---,0.00,VWS V14.01,2013-07-04 03:15:00,
2013-07-03 21:17:00,65.8,65.3,25.31,NE,42,0.0,0.0,98,0.00,,---,0.00,VWS V14.01,2013-07-04 03:17:00,
2013-07-03 21:18:00,65.8,65.3,25.31,NE,42,0.0,0.0,98,0.00,,---,0.00,VWS V14.01,2013-07-04 03:18:00,
2013-07-03 21:19:00,65.7,65.1,25.31,NE,42,0.0,0.0,98,0.00,,---,0.00,VWS V14.01,2013-07-04 03:19:00,
2013-07-03 21:24:00,65.7,65.1,25.31,NE,42,0.0,0.0,98,0.00,,---,0.00,VWS V14.01,2013-07-04 03:24:00,
2013-07-03 21:25:00,65.7,65.1,25.31,NE,42,0.0,0.0,98,0.00,,---,0.00,VWS V14.01,2013-07-04 03:25:00,
2013-07-03 21:27:00,65.7,65.1,25.31,NE,42,0.0,0.0,98,0.00,,---,0.00,VWS V14.01,2013-07-04 03:27:00,
2013-07-03 21:31:00,65.7,65.1,25.31,NE,46,0.0,2.7,98,0.00,,---,0.00,VWS V14.01,2013-07-04 03:31:00,
2013-07-03 21:32:00,65.7,65.1,25.31,East,95,3.6,3.6,98,0.00,,---,0.00,VWS V14.01,2013-07-04 03:32:00,
2013-07-03 21:34:00,65.5,64.9,25.31,East,88,0.0,2.7,98,0.00,,---,0.00,VWS V14.01,2013-07-04 03:34:00,
2013-07-03 21:39:00,65.5,64.9,25.31,ENE,58,0.0,0.0,98,0.00,,---,0.00,VWS V14.01,2013-07-04 03:39:00,
2013-07-03 21:40:00,65.5,64.9,25.31,ENE,58,0.0,0.0,98,0.00,,---,0.00,VWS V14.01,2013-07-04 03:40:00,
2013-07-03 21:41:00,65.5,64.9,25.31,ENE,58,0.0,0.0,98,0.00,,---,0.00,VWS V14.01,2013-07-04 03:41:00,
2013-07-03 21:45:00,65.5,64.9,25.31,ENE,58,0.0,0.0,98,0.00,,---,0.00,VWS V14.01,2013-07-04 03:45:00,
2013-07-03 21:46:00,65.5,64.9,25.31,East,88,0.0,0.0,98,0.00,,---,0.00,VWS V14.01,2013-07-04 03:46:00,
2013-07-03 21:47:00,65.5,64.9,25.31,East,88,0.0,0.0,98,0.00,,---,0.00,VWS V14.01,2013-07-04 03:47:00,
2013-07-03 21:49:00,65.5,64.9,25.31,East,83,0.0,3.1,98,0.00,,---,0.00,VWS V14.01,2013-07-04 03:49:00,
2013-07-03 21:54:00,65.3,64.7,25.31,NE,34,0.0,0.0,98,0.00,,---,0.00,VWS V14.01,2013-07-04 03:54:00,
2013-07-03 21:56:00,65.3,64.7,25.31,NE,34,0.0,0.0,98,0.00,,---,0.00,VWS V14.01,2013-07-04 03:56:00,
2013-07-03 22:00:00,65.1,64.5,25.31,NE,34,0.0,2.2,98,0.00,,---,0.00,VWS V14.01,2013-07-04 04:00:00,
2013-07-03 22:01:00,65.1,64.5,25.31,NE,34,0.0,0.0,98,0.00,,---,0.00,VWS V14.01,2013-07-04 04:01:00,
2013-07-03 22:02:00,64.9,64.4,25.31,NE,34,0.0,0.0,98,0.00,,---,0.00,VWS V14.01,2013-07-04 04:02:00,
2013-07-03 22:03:00,64.9,64.4,25.31,NE,34,0.0,0.0,98,0.00,,---,0.00,VWS V14.01,2013-07-04 04:03:00,
2013-07-03 22:05:00,64.9,64.4,25.31,NE,34,0.0,0.0,98,0.00,,---,0.00,VWS V14.01,2013-07-04 04:05:00,
2013-07-03 22:07:00,64.8,64.2,25.31,NE,34,0.0,0.0,98,0.00,,---,0.00,VWS V14.01,2013-07-04 04:07:00,
2013-07-03 22:08:00,64.8,64.2,25.31,NE,34,0.0,0.0,98,0.00,,---,0.00,VWS V14.01,2013-07-04 04:08:00,
2013-07-03 22:09:00,64.8,64.2,25.31,NE,34,0.0,0.0,98,0.00,,---,0.00,VWS V14.01,2013-07-04 04:09:00,
2013-07-03 22:11:00,64.8,64.2,25.31,NE,34,2.2,2.2,98,0.00,,---,0.00,VWS V14.01,2013-07-04 04:11:00,
2013-07-03 22:14:00,64.6,64.0,25.31,NE,34,0.0,0.0,98,0.00,,---,0.00,VWS V14.01,2013-07-04 04:14:00,
2013-07-03 22:16:00,64.6,64.0,25.31,NE,34,0.0,0.0,98,0.00,,---,0.00,VWS V14.01,2013-07-04 04:16:00,
2013-07-03 22:17:00,64.6,64.0,25.31,NE,34,0.0,0.0,98,0.00,,---,0.00,VWS V14.01,2013-07-04 04:17:00,
2013-07-03 22:19:00,64.6,64.0,25.31,NE,34,0.0,0.0,98,0.00,,---,0.00,VWS V14.01,2013-07-04 04:19:00,
2013-07-03 22:23:00,64.4,63.8,25.31,NE,34,0.0,0.0,98,0.00,,---,0.00,VWS V14.01,2013-07-04 04:23:00,
2013-07-03 22:25:00,64.4,63.8,25.31,NNE,31,0.0,0.0,98,0.00,,---,0.00,VWS V14.01,2013-07-04 04:25:00,
2013-07-03 22:26:00,64.4,63.8,25.31,NNE,23,0.0,0.0,98,0.00,,---,0.00,VWS V14.01,2013-07-04 04:26:00,
2013-07-03 22:28:00,64.4,63.8,25.31,NNE,23,0.0,0.0,98,0.00,,---,0.00,VWS V14.01,2013-07-04 04:28:00,
2013-07-03 22:29:00,64.4,63.8,25.31,NNE,23,0.0,0.0,98,0.00,,---,0.00,VWS V14.01,2013-07-04 04:29:00,
2013-07-03 22:30:00,64.4,63.8,25.31,NNE,23,0.0,0.0,98,0.00,,---,0.00,VWS V14.01,2013-07-04 04:30:00,
2013-07-03 22:32:00,64.2,63.7,25.31,NNE,23,0.0,0.0,98,0.00,,---,0.00,VWS V14.01,2013-07-04 04:32:00,
2013-07-03 22:34:00,64.2,63.7,25.31,NNE,23,0.0,0.0,98,0.00,,---,0.00,VWS V14.01,2013-07-04 04:34:00,
2013-07-03 22:35:00,64.2,63.7,25.31,NNE,23,0.0,0.0,98,0.00,,---,0.00,VWS V14.01,2013-07-04 04:35:00,
2013-07-03 22:36:00,64.0,63.5,25.31,NNE,23,0.0,0.0,98,0.00,,---,0.00,VWS V14.01,2013-07-04 04:36:00,
2013-07-03 22:39:00,64.0,63.5,25.31,NNE,23,0.0,0.0,98,0.00,,---,0.00,VWS V14.01,2013-07-04 04:39:00,
2013-07-03 22:40:00,64.0,63.5,25.31,NNE,23,0.0,0.0,98,0.00,,---,0.00,VWS V14.01,2013-07-04 04:40:00,
2013-07-03 22:41:00,64.0,63.5,25.31,NNE,23,0.0,0.0,98,0.00,,---,0.00,VWS V14.01,2013-07-04 04:41:00,
2013-07-03 22:44:00,63.9,63.3,25.31,NNE,23,0.0,0.0,98,0.00,,---,0.00,VWS V14.01,2013-07-04 04:44:00,
2013-07-03 22:45:00,63.9,63.3,25.31,NNE,23,0.0,0.0,98,0.00,,---,0.00,VWS V14.01,2013-07-04 04:45:00,
2013-07-03 22:46:00,63.9,63.3,25.31,NNE,23,0.0,0.0,98,0.00,,---,0.00,VWS V14.01,2013-07-04 04:46:00,
2013-07-03 22:49:00,64.0,63.5,25.31,NNE,23,0.0,0.0,98,0.00,,---,0.00,VWS V14.01,2013-07-04 04:49:00,
2013-07-03 22:51:00,64.0,63.5,25.31,NNE,23,0.0,0.0,98,0.00,,---,0.00,VWS V14.01,2013-07-04 04:51:00,
2013-07-03 22:54:00,64.0,63.5,25.31,NNE,23,0.0,0.0,98,0.00,,---,0.00,VWS V14.01,2013-07-04 04:54:00,
2013-07-03 22:55:00,64.0,63.5,25.31,NNE,23,0.0,0.0,98,0.00,,---,0.00,VWS V14.01,2013-07-04 04:55:00,
2013-07-03 22:56:00,64.0,63.5,25.31,NNE,23,0.0,0.0,98,0.00,,---,0.00,VWS V14.01,2013-07-04 04:56:00,
2013-07-03 23:00:00,63.9,63.3,25.31,NNE,23,0.0,0.0,98,0.00,,---,0.00,VWS V14.01,2013-07-04 05:00:00,
2013-07-03 23:01:00,63.9,63.3,25.31,NNE,23,0.0,0.0,98,0.00,,---,0.00,VWS V14.01,2013-07-04 05:01:00,
2013-07-03 23:02:00,63.9,63.3,25.31,NNE,23,0.0,0.0,98,0.00,,---,0.00,VWS V14.01,2013-07-04 05:02:00,
2013-07-03 23:04:00,64.0,63.5,25.31,NNE,23,0.0,0.0,98,0.00,,---,0.00,VWS V14.01,2013-07-04 05:04:00,
2013-07-03 23:05:00,64.0,63.5,25.31,NNE,23,0.0,0.0,98,0.00,,---,0.00,VWS V14.01,2013-07-04 05:05:00,
2013-07-03 23:07:00,64.0,63.5,25.31,NNE,23,0.0,0.0,98,0.00,,---,0.00,VWS V14.01,2013-07-04 05:07:00,
2013-07-03 23:10:00,64.0,63.5,25.31,NNE,23,0.0,0.0,98,0.00,,---,0.00,VWS V14.01,2013-07-04 05:10:00,
2013-07-03 23:11:00,64.0,63.5,25.31,NNE,23,0.0,0.0,98,0.00,,---,0.00,VWS V14.01,2013-07-04 05:11:00,
2013-07-03 23:14:00,64.0,63.5,25.31,NNE,23,0.0,0.0,98,0.00,,---,0.00,VWS V14.01,2013-07-04 05:14:00,
2013-07-03 23:16:00,64.0,63.5,25.31,NNE,23,0.0,0.0,98,0.00,,---,0.00,VWS V14.01,2013-07-04 05:16:00,
2013-07-03 23:19:00,64.0,63.5,25.31,NNE,23,0.0,0.0,98,0.00,,---,0.00,VWS V14.01,2013-07-04 05:19:00,
2013-07-03 23:20:00,64.0,63.5,25.31,NNE,23,0.0,0.0,98,0.00,,---,0.00,VWS V14.01,2013-07-04 05:20:00,
2013-07-03 23:23:00,64.0,63.5,25.31,NNE,23,0.0,0.0,98,0.00,,---,0.00,VWS V14.01,2013-07-04 05:23:00,
2013-07-03 23:24:00,64.0,63.5,25.31,NNE,23,0.0,0.0,98,0.00,,---,0.00,VWS V14.01,2013-07-04 05:24:00,
2013-07-03 23:25:00,64.0,63.5,25.31,NNE,23,0.0,0.0,98,0.00,,---,0.00,VWS V14.01,2013-07-04 05:25:00,
2013-07-03 23:30:00,63.9,63.3,25.31,NNE,23,0.0,0.0,98,0.00,,---,0.00,VWS V14.01,2013-07-04 05:30:00,
2013-07-03 23:31:00,63.9,63.3,25.31,NNE,23,0.0,0.0,98,0.00,,---,0.00,VWS V14.01,2013-07-04 05:31:00,
2013-07-03 23:33:00,63.9,63.3,25.31,NNE,24,0.0,0.0,98,0.00,,---,0.00,VWS V14.01,2013-07-04 05:33:00,
2013-07-03 23:34:00,63.9,63.3,25.31,NNE,24,0.0,0.0,98,0.00,,---,0.00,VWS V14.01,2013-07-04 05:34:00,
2013-07-03 23:36:00,64.0,63.5,25.31,NNE,24,0.0,0.0,98,0.00,,---,0.00,VWS V14.01,2013-07-04 05:36:00,
2013-07-03 23:38:00,64.0,63.5,25.31,NNE,16,0.0,2.7,98,0.00,,---,0.00,VWS V14.01,2013-07-04 05:38:00,
2013-07-03 23:39:00,64.0,63.5,25.31,NNE,16,0.0,0.0,98,0.00,,---,0.00,VWS V14.01,2013-07-04 05:39:00,
2013-07-03 23:42:00,63.9,63.3,25.31,NNE,24,0.0,3.1,98,0.00,,---,0.00,VWS V14.01,2013-07-04 05:42:00,
2013-07-03 23:43:00,63.9,63.3,25.31,NNE,24,0.0,0.0,98,0.00,,---,0.00,VWS V14.01,2013-07-04 05:43:00,
2013-07-03 23:46:00,63.9,63.3,25.31,NNE,23,0.0,0.0,98,0.00,,---,0.00,VWS V14.01,2013-07-04 05:46:00,
2013-07-03 23:47:00,63.9,63.3,25.31,NNE,24,0.0,0.0,98,0.00,,---,0.00,VWS V14.01,2013-07-04 05:47:00,
2013-07-03 23:50:00,63.9,63.3,25.31,NNE,24,0.0,0.0,98,0.00,,---,0.00,VWS V14.01,2013-07-04 05:50:00,
2013-07-03 23:51:00,63.9,63.3,25.31,NNE,22,0.0,0.0,98,0.00,,---,0.00,VWS V14.01,2013-07-04 05:51:00,
2013-07-03 23:53:00,63.9,63.3,25.31,NNE,22,0.0,0.0,98,0.00,,---,0.00,VWS V14.01,2013-07-04 05:53:00,
2013-07-03 23:56:00,63.9,63.3,25.31,NNE,22,0.0,0.0,98,0.00,,---,0.00,VWS V14.01,2013-07-04 05:56:00,
2013-07-03 23:57:00,63.9,63.3,25.31,NNE,22,0.0,0.0,98,0.00,,---,0.00,VWS V14.01,2013-07-04 05:57:00,